HIGHLAND LAKE: From 07/20/2018 00:00 to 09/21/2018 00:00

Date LAKE ELEVATION [FT] PRECIPITATION INCREMENT [IN] PRECIPITATION TOTAL [IN] AIR TEMPERATURE [F] RELATIVE HUMIDITY [%]
09/18/2018 22:00 1294.97 0.00 -- 64.5 100.0
09/18/2018 21:00 1294.97 0.00 -- 65.3 100.0
09/18/2018 20:00 1294.97 0.00 -- 67.6 100.0
09/18/2018 19:00 1294.97 0.00 -- 70.3 96.0
09/18/2018 18:00 1294.96 0.00 -- 74.3 75.0
09/18/2018 17:00 1294.97 0.00 -- 74.8 75.0
09/18/2018 16:00 1294.97 0.00 -- 74.8 72.0
09/18/2018 15:00 1294.97 0.00 -- 71.3 90.0
09/18/2018 14:00 1294.96 0.00 -- 69.9 95.0
09/18/2018 13:00 1294.95 0.00 -- 67.6 100.0
09/18/2018 12:00 1294.93 0.02 -- 65.5 100.0
09/18/2018 11:00 1294.94 0.06 -- 64.4 100.0
09/18/2018 10:00 1294.93 0.26 -- 64.0 100.0
09/18/2018 09:00 1294.90 0.34 -- 63.5 100.0
09/18/2018 08:00 1294.86 0.54 -- 63.7 100.0
09/18/2018 07:00 1294.83 0.10 -- 64.4 100.0
09/18/2018 06:00 1294.82 0.07 -- 64.7 100.0
09/18/2018 05:00 1294.82 0.03 -- 65.0 100.0
09/18/2018 04:00 1294.82 0.09 -- 65.5 100.0
09/18/2018 03:00 1294.81 0.04 -- 66.0 100.0
09/18/2018 02:00 1294.81 0.04 -- 65.9 100.0
09/18/2018 01:00 1294.81 0.00 -- 66.4 100.0
09/18/2018 00:00 1294.79 0.00 -- 66.4 99.0
09/17/2018 23:00 1294.80 0.00 -- 66.2 95.0
09/17/2018 22:00 1294.81 0.00 -- 67.0 86.0
09/17/2018 21:00 1294.81 0.00 -- 67.0 83.0
09/17/2018 20:00 1294.80 0.00 -- 68.3 77.0
09/17/2018 19:00 1294.80 0.00 -- 70.3 70.0
09/17/2018 18:00 1294.81 0.00 -- 72.7 70.0
09/17/2018 17:00 1294.81 0.00 -- 74.7 66.0
09/17/2018 16:00 1294.79 0.00 -- 74.8 62.0
09/17/2018 15:00 1294.81 0.00 -- 74.9 53.0
09/17/2018 14:00 1294.81 0.00 -- 75.7 56.0
09/17/2018 13:00 1294.81 0.00 -- 74.8 60.0
09/17/2018 12:00 1294.81 0.00 -- 73.3 64.0
09/17/2018 11:00 1294.81 0.00 -- 69.6 84.0
09/17/2018 10:00 1294.82 0.00 -- 65.0 100.0
09/17/2018 09:00 1294.82 0.00 -- 63.6 100.0
09/17/2018 08:00 1294.83 0.00 -- 63.6 100.0
09/17/2018 07:00 1294.83 0.00 -- 62.9 100.0
09/17/2018 06:00 1294.84 0.00 -- 60.6 100.0
09/17/2018 05:00 1294.84 0.00 -- 61.0 100.0
09/17/2018 04:00 1294.84 0.00 -- 61.7 100.0
09/17/2018 03:00 1294.85 0.00 -- 61.9 100.0
09/17/2018 02:00 1294.85 0.00 -- 62.0 100.0
09/17/2018 01:00 1294.85 0.00 -- 62.6 100.0
09/17/2018 00:00 1294.85 0.00 0.00 63.7 100.0
09/16/2018 23:00 1294.85 0.00 -- 65.1 100.0
09/16/2018 22:00 1294.85 0.00 -- 66.6 100.0
09/16/2018 21:00 1294.86 0.00 -- 67.8 100.0
09/16/2018 20:00 1294.86 0.00 -- 69.9 100.0
09/16/2018 19:00 1294.86 0.00 -- 73.7 87.0
09/16/2018 18:00 1294.87 0.00 -- 76.8 76.0
09/16/2018 17:00 1294.87 0.00 -- 80.1 64.0
09/16/2018 16:00 1294.86 0.00 -- 81.3 53.0
09/16/2018 15:00 1294.84 0.00 -- 78.6 65.0
09/16/2018 14:00 1294.88 0.00 -- 78.8 63.0
09/16/2018 13:00 1294.87 0.00 -- 73.0 86.0
09/16/2018 12:00 1294.84 0.00 -- 75.5 66.0
09/16/2018 11:00 1294.87 0.00 -- 70.7 86.0
09/16/2018 10:00 1294.86 0.00 -- 64.8 100.0
09/16/2018 09:00 1294.87 0.00 -- 58.1 100.0
09/16/2018 08:00 1294.87 0.00 -- 56.9 100.0
09/16/2018 07:00 1294.88 0.00 -- 56.2 100.0
09/16/2018 06:00 1294.88 0.00 -- 56.8 100.0
09/16/2018 05:00 1294.88 0.00 -- 57.1 100.0
09/16/2018 04:00 1294.88 0.00 -- 56.6 100.0
09/16/2018 03:00 1294.88 0.00 -- 57.3 100.0
09/16/2018 02:00 1294.89 0.00 -- 57.3 100.0
09/16/2018 01:00 1294.89 0.00 -- 57.8 100.0
09/16/2018 00:00 1294.89 0.00 0.00 57.9 100.0
09/15/2018 23:00 1294.89 0.00 -- 58.7 100.0
09/15/2018 22:00 1294.89 0.00 -- 59.7 100.0
09/15/2018 21:00 1294.90 0.00 -- 61.5 99.0
09/15/2018 20:00 1294.90 0.00 -- 65.3 94.0
09/15/2018 19:00 1294.90 0.00 -- 70.0 72.0
09/15/2018 18:00 1294.91 0.00 -- 73.2 65.0
09/15/2018 17:00 1294.94 0.00 -- 77.1 51.0
09/15/2018 16:00 1294.89 0.00 -- 75.3 53.0
09/15/2018 15:00 1294.90 0.00 -- 77.2 54.0
09/15/2018 14:00 1294.90 0.00 -- 73.6 64.0
09/15/2018 13:00 1294.92 0.00 -- 71.0 62.0
09/15/2018 12:00 1294.87 0.00 -- 68.2 81.0
09/15/2018 11:00 1294.91 0.00 -- 64.2 100.0
09/15/2018 10:00 1294.91 0.00 -- 61.7 100.0
09/15/2018 09:00 1294.91 0.00 -- 60.3 100.0
09/15/2018 08:00 1294.92 0.00 -- 60.3 100.0
09/15/2018 07:00 1294.92 0.00 -- 60.4 100.0
09/15/2018 06:00 1294.92 0.00 -- 59.8 100.0
09/15/2018 05:00 1294.92 0.00 -- 58.3 100.0
09/15/2018 04:00 1294.93 0.00 -- 57.5 100.0
09/15/2018 03:00 1294.93 0.00 -- 57.0 100.0
09/15/2018 02:00 1294.93 0.00 -- 57.0 100.0
09/15/2018 01:00 1294.94 0.00 -- 57.1 100.0
09/15/2018 00:00 1294.94 0.00 0.00 57.4 100.0
09/14/2018 23:00 1294.94 0.00 -- 58.2 100.0
09/14/2018 22:00 1294.94 0.00 -- 59.3 100.0
09/14/2018 21:00 1294.94 0.00 -- 61.2 100.0
09/14/2018 20:00 1294.95 0.00 -- 63.7 99.0
09/14/2018 19:00 1294.95 0.00 -- 67.0 86.0
09/14/2018 18:00 1294.95 0.00 -- 70.6 74.0
09/14/2018 17:00 1294.96 0.00 -- 72.8 66.0
09/14/2018 16:00 1294.95 0.00 -- 73.6 56.0
09/14/2018 15:00 1294.94 0.00 -- 71.1 74.0
09/14/2018 14:00 1294.93 0.00 -- 71.5 61.0
09/14/2018 13:00 1294.96 0.00 -- 69.0 79.0
09/14/2018 12:00 1294.93 0.00 -- 64.9 100.0
09/14/2018 11:00 1294.94 0.00 -- 62.6 100.0
09/14/2018 10:00 1294.95 0.00 -- 59.1 100.0
09/14/2018 09:00 1294.95 0.00 -- 55.9 100.0
09/14/2018 08:00 1294.96 0.00 -- 53.9 100.0
09/14/2018 07:00 1294.96 0.00 -- 53.4 100.0
09/14/2018 06:00 1294.96 0.00 -- 53.7 100.0
09/14/2018 05:00 1294.96 0.00 -- 55.3 100.0
09/14/2018 04:00 1294.96 0.00 -- 56.0 100.0
09/14/2018 03:00 1294.96 0.00 -- 57.2 100.0
09/14/2018 02:00 1294.96 0.00 -- 58.5 100.0
09/14/2018 01:00 1294.96 0.00 -- 60.0 100.0
09/14/2018 00:00 1294.96 0.00 0.00 61.1 100.0
09/13/2018 23:00 1294.96 0.00 -- 60.7 100.0
09/13/2018 22:00 1294.96 0.00 -- 60.6 100.0
09/13/2018 21:00 1294.96 0.00 -- 61.7 100.0
09/13/2018 20:00 1294.96 0.00 -- 63.8 100.0
09/13/2018 19:00 1294.96 0.00 -- 66.7 100.0
09/13/2018 18:00 1294.96 0.00 -- 67.7 99.0
09/13/2018 17:00 1294.96 0.00 -- 70.9 84.0
09/13/2018 16:00 1294.97 0.00 -- 67.1 92.0
09/13/2018 15:00 1294.96 0.00 -- 65.1 100.0
09/13/2018 14:00 1294.96 0.01 -- 65.2 100.0
09/13/2018 13:00 1294.96 0.00 -- 64.4 100.0
09/13/2018 12:00 1294.96 0.00 -- 63.5 100.0
09/13/2018 11:00 1294.95 0.00 -- 62.9 100.0
09/13/2018 10:00 1294.96 0.00 -- 61.6 100.0
09/13/2018 09:00 1294.95 0.00 -- 59.7 100.0
09/13/2018 08:00 1294.96 0.00 -- 59.0 100.0
09/13/2018 07:00 1294.96 0.00 -- 59.0 100.0
09/13/2018 06:00 1294.95 0.01 -- 59.0 100.0
09/13/2018 05:00 1294.95 0.00 -- 59.0 100.0
09/13/2018 04:00 1294.95 0.00 -- 58.7 100.0
09/13/2018 03:00 1294.95 0.00 -- 58.6 100.0
09/13/2018 02:00 1294.95 0.00 -- 58.8 100.0
09/13/2018 01:00 1294.95 0.00 -- 59.1 100.0
09/13/2018 00:00 1294.94 0.00 0.02 59.2 100.0
09/12/2018 23:00 1294.93 0.00 -- 59.3 100.0
09/12/2018 22:00 1294.94 0.00 -- 58.8 100.0
09/12/2018 21:00 1294.94 0.00 -- 59.3 100.0
09/12/2018 20:00 1294.94 0.00 -- 59.6 100.0
09/12/2018 19:00 1294.94 0.00 -- 60.2 100.0
09/12/2018 18:00 1294.93 0.00 -- 60.0 100.0
09/12/2018 17:00 1294.92 0.01 -- 60.0 100.0
09/12/2018 16:00 1294.92 0.00 -- 61.5 100.0
09/12/2018 15:00 1294.93 0.06 -- 61.2 100.0
09/12/2018 14:00 1294.92 0.07 -- 61.5 100.0
09/12/2018 13:00 1294.91 0.04 -- 61.0 100.0
09/12/2018 12:00 1294.90 0.00 -- 60.9 100.0
09/12/2018 11:00 1294.90 0.01 -- 61.5 100.0
09/12/2018 10:00 1294.90 0.00 -- 61.6 100.0
09/12/2018 09:00 1294.89 0.00 -- 61.8 100.0
09/12/2018 08:00 1294.89 0.00 -- 62.0 100.0
09/12/2018 07:00 1294.89 0.00 -- 62.0 100.0
09/12/2018 06:00 1294.88 0.00 -- 62.4 100.0
09/12/2018 05:00 1294.89 0.00 -- 62.3 100.0
09/12/2018 04:00 1294.88 0.00 -- 63.1 100.0
09/12/2018 03:00 1294.88 0.00 -- 62.2 100.0
09/12/2018 02:00 1294.88 0.00 -- 62.9 100.0
09/12/2018 01:00 1294.88 0.00 -- 62.6 100.0
09/12/2018 00:00 1294.88 0.00 0.19 62.6 100.0
09/11/2018 23:00 1294.88 0.00 -- 63.3 100.0
09/11/2018 22:00 1294.87 0.00 -- 63.3 100.0
09/11/2018 21:00 1294.88 0.00 -- 63.4 100.0
09/11/2018 20:00 1294.88 0.00 -- 64.2 100.0
09/11/2018 19:00 1294.86 0.00 -- 66.0 97.0
09/11/2018 18:00 1294.86 0.00 -- 66.8 90.0
09/11/2018 17:00 1294.86 0.00 -- 66.9 90.0
09/11/2018 16:00 1294.85 0.00 -- 66.4 91.0
09/11/2018 15:00 1294.85 0.00 -- 68.2 84.0
09/11/2018 14:00 1294.84 0.00 -- 63.5 99.0
09/11/2018 13:00 1294.84 0.00 -- 60.5 100.0
09/11/2018 12:00 1294.84 0.01 -- 57.9 100.0
09/11/2018 11:00 1294.84 0.00 -- 57.5 100.0
09/11/2018 10:00 1294.83 0.00 -- 56.5 100.0
09/11/2018 09:00 1294.83 0.00 -- 55.7 100.0
09/11/2018 08:00 1294.83 0.01 -- 54.9 100.0
09/11/2018 07:00 1294.82 0.01 -- 54.7 100.0
09/11/2018 06:00 1294.81 0.01 -- 54.1 100.0
09/11/2018 05:00 1294.81 0.07 -- 54.0 100.0
09/11/2018 04:00 1294.79 0.20 -- 53.9 100.0
09/11/2018 03:00 1294.77 0.04 -- 53.7 100.0
09/11/2018 02:00 1294.76 0.12 -- 53.9 100.0
09/11/2018 01:00 1294.75 0.21 -- 54.1 100.0
09/11/2018 00:00 1294.71 0.31 0.68 53.6 100.0
09/10/2018 23:00 1294.70 0.24 -- 52.2 100.0
09/10/2018 22:00 1294.67 0.13 -- 51.5 100.0
09/10/2018 21:00 1294.67 0.10 -- 51.6 100.0
09/10/2018 20:00 1294.67 0.12 -- 52.6 100.0
09/10/2018 19:00 1294.66 0.07 -- 53.2 100.0
09/10/2018 18:00 1294.65 0.06 -- 53.6 100.0
09/10/2018 17:00 1294.65 0.02 -- 53.9 99.0
09/10/2018 16:00 1294.64 0.00 -- 53.8 94.0
09/10/2018 15:00 1294.65 0.00 -- 54.5 86.0
09/10/2018 14:00 1294.65 0.00 -- 54.3 84.0
09/10/2018 13:00 1294.65 0.00 -- 53.7 81.0
09/10/2018 12:00 1294.66 0.00 -- 52.7 83.0
09/10/2018 11:00 1294.65 0.00 -- 50.7 82.0
09/10/2018 10:00 1294.65 0.00 -- 49.6 80.0
09/10/2018 09:00 1294.65 0.00 -- 48.4 79.0
09/10/2018 08:00 1294.65 0.00 -- 46.9 79.0
09/10/2018 07:00 1294.66 0.00 -- 47.3 79.0
09/10/2018 06:00 1294.65 0.00 -- 47.1 81.0
09/10/2018 05:00 1294.65 0.00 -- 46.3 86.0
09/10/2018 04:00 1294.65 0.00 -- 45.2 90.0
09/10/2018 03:00 1294.65 0.00 -- 45.0 89.0
09/10/2018 02:00 1294.65 0.00 -- 45.0 91.0
09/10/2018 01:00 1294.65 0.00 -- 46.0 92.0
09/10/2018 00:00 1294.65 0.00 1.05 45.8 91.0
09/09/2018 23:00 1294.65 0.00 -- 46.4 92.0
09/09/2018 22:00 1294.65 0.00 -- 46.8 87.0
09/09/2018 21:00 1294.65 0.00 -- 47.7 87.0
09/09/2018 20:00 1294.65 0.00 -- 49.7 82.0
09/09/2018 19:00 1294.65 0.00 -- 52.3 74.0
09/09/2018 18:00 1294.65 0.00 -- 54.2 66.0
09/09/2018 17:00 1294.65 0.00 -- 55.9 64.0
09/09/2018 16:00 1294.65 0.00 -- 55.2 57.0
09/09/2018 15:00 1294.65 0.00 -- 54.9 58.0
09/09/2018 14:00 1294.66 0.00 -- 54.8 53.0
09/09/2018 13:00 1294.66 0.00 -- 53.5 58.0
09/09/2018 12:00 1294.64 0.00 -- 52.3 60.0
09/09/2018 11:00 1294.67 0.00 -- 50.2 64.0
09/09/2018 10:00 1294.66 0.00 -- 48.9 68.0
09/09/2018 09:00 1294.65 0.00 -- 45.0 95.0
09/09/2018 08:00 1294.65 0.00 -- 41.3 99.0
09/09/2018 07:00 1294.66 0.00 -- 40.8 99.0
09/09/2018 06:00 1294.66 0.00 -- 42.3 98.0
09/09/2018 05:00 1294.66 0.00 -- 42.7 96.0
09/09/2018 04:00 1294.66 0.00 -- 42.9 98.0
09/09/2018 03:00 1294.66 0.00 -- 44.2 95.0
09/09/2018 02:00 1294.66 0.00 -- 45.5 92.0
09/09/2018 01:00 1294.66 0.00 -- 46.4 85.0
09/09/2018 00:00 1294.66 0.00 0.00 46.6 85.4
09/08/2018 23:00 1294.66 0.00 -- 46.8 85.8
09/08/2018 22:00 1294.66 0.00 -- 46.9 86.1
09/08/2018 21:00 1294.66 0.00 -- 47.1 86.5
09/08/2018 20:00 1294.66 0.00 -- 47.3 86.9
09/08/2018 19:00 1294.66 0.00 -- 47.5 87.3
09/08/2018 18:00 1294.67 0.00 -- 47.7 87.6
09/08/2018 17:00 1294.67 0.00 -- 47.8 88.0
09/08/2018 16:00 1294.67 0.00 -- 48.0 88.4
09/08/2018 15:00 1294.67 0.00 -- 48.2 88.8
09/08/2018 14:00 1294.67 0.00 -- 48.4 89.1
09/08/2018 13:00 1294.67 0.00 -- 48.6 89.5
09/08/2018 12:00 1294.67 0.00 -- 48.7 89.9
09/08/2018 11:00 1294.67 0.00 -- 48.9 90.3
09/08/2018 10:00 1294.67 0.00 -- 49.1 90.6
09/08/2018 09:00 1294.67 0.00 -- 49.3 91.0
09/08/2018 08:00 1294.67 0.00 -- 49.5 91.4
09/08/2018 07:00 1294.67 0.00 -- 49.6 91.8
09/08/2018 06:00 1294.67 0.00 -- 49.8 92.1
09/08/2018 05:00 1294.68 0.00 -- 50.0 92.5
09/08/2018 04:00 1294.68 0.00 -- 50.2 92.9
09/08/2018 03:00 1294.68 0.00 -- 50.4 93.3
09/08/2018 02:00 1294.68 0.00 -- 50.5 93.6
09/08/2018 01:00 1294.68 0.00 -- 50.7 94.0
09/08/2018 00:00 1294.68 0.00 0.00 50.9 94.4
09/07/2018 23:00 1294.68 0.00 -- 51.1 94.8
09/07/2018 22:00 1294.68 0.00 -- 51.3 95.1
09/07/2018 21:00 1294.68 0.00 -- 51.4 95.5
09/07/2018 20:00 1294.68 0.00 -- 51.6 95.9
09/07/2018 19:00 1294.68 0.00 -- 51.8 96.3
09/07/2018 18:00 1294.68 0.00 -- 52.0 96.6
09/07/2018 17:00 1294.68 0.00 -- 52.2 97.0
09/07/2018 16:00 1294.68 0.00 -- 52.3 97.4
09/07/2018 15:00 1294.69 0.00 -- 52.5 97.8
09/07/2018 14:00 1294.69 0.00 -- 52.7 98.1
09/07/2018 13:00 1294.69 0.00 -- 52.9 98.5
09/07/2018 12:00 1294.69 0.00 -- 53.1 98.9
09/07/2018 11:00 1294.69 0.00 -- 53.2 99.3
09/07/2018 10:00 1294.69 0.00 -- 53.4 99.6
09/07/2018 09:00 1294.69 0.00 -- 53.6 100.0
09/07/2018 08:00 1294.69 0.00 -- 53.3 100.0
09/07/2018 07:00 1294.69 0.00 -- 55.1 100.0
09/07/2018 06:00 1294.69 0.00 -- 54.8 100.0
09/07/2018 05:00 1294.69 0.00 -- 56.0 100.0
09/07/2018 04:00 1294.69 0.00 -- 57.0 100.0
09/07/2018 03:00 1294.69 0.00 -- 57.8 100.0
09/07/2018 02:00 1294.70 0.00 -- 60.0 100.0
09/07/2018 01:00 1294.69 0.00 -- 62.2 100.0
09/07/2018 00:00 1294.69 0.00 0.00 63.7 100.0
09/06/2018 23:00 1294.69 0.00 -- 64.5 100.0
09/06/2018 22:00 1294.69 0.00 -- 65.5 100.0
09/06/2018 21:00 1294.69 0.00 -- 66.6 100.0
09/06/2018 20:00 1294.69 0.00 -- 68.0 100.0
09/06/2018 19:00 1294.69 0.00 -- 70.0 100.0
09/06/2018 18:00 1294.70 0.01 -- 68.6 100.0
09/06/2018 17:00 1294.71 0.01 -- 68.2 100.0
09/06/2018 16:00 1294.68 0.22 -- 70.3 100.0
09/06/2018 15:00 1294.71 0.00 -- 76.3 74.0
09/06/2018 14:00 1294.63 0.00 -- 82.3 61.0
09/06/2018 13:00 1294.65 0.00 -- 81.1 68.0
09/06/2018 12:00 1294.63 0.00 -- 78.9 73.0
09/06/2018 11:00 1294.64 0.00 -- 74.7 87.0
09/06/2018 10:00 1294.65 0.00 -- 72.5 97.0
09/06/2018 09:00 1294.65 0.00 -- 70.9 100.0
09/06/2018 08:00 1294.65 0.00 -- 70.2 100.0
09/06/2018 07:00 1294.65 0.00 -- 70.5 100.0
09/06/2018 06:00 1294.65 0.00 -- 70.9 100.0
09/06/2018 05:00 1294.64 0.00 -- 71.4 100.0
09/06/2018 04:00 1294.64 0.00 -- 72.0 100.0
09/06/2018 03:00 1294.64 0.00 -- 72.2 100.0
09/06/2018 02:00 1294.63 0.00 -- 72.8 100.0
09/06/2018 01:00 1294.63 0.00 -- 73.2 100.0
09/06/2018 00:00 1294.65 0.00 0.24 72.2 99.0
09/05/2018 23:00 1294.66 0.00 -- 71.1 99.0
09/05/2018 22:00 1294.66 0.00 -- 70.8 99.0
09/05/2018 21:00 1294.67 0.00 -- 72.2 94.0
09/05/2018 20:00 1294.67 0.00 -- 75.6 82.0
09/05/2018 19:00 1294.66 0.00 -- 81.6 65.0
09/05/2018 18:00 1294.67 0.00 -- 84.1 59.0
09/05/2018 17:00 1294.67 0.00 -- 84.1 58.0
09/05/2018 16:00 1294.63 0.00 -- 84.4 55.0
09/05/2018 15:00 1294.64 0.00 -- 81.9 58.0
09/05/2018 14:00 1294.65 0.00 -- 80.6 58.0
09/05/2018 13:00 1294.65 0.00 -- 77.9 61.0
09/05/2018 12:00 1294.65 0.00 -- 75.1 64.0
09/05/2018 11:00 1294.65 0.00 -- 72.4 67.0
09/05/2018 10:00 1294.66 0.00 -- 69.1 86.0
09/05/2018 09:00 1294.67 0.00 -- 61.9 100.0
09/05/2018 08:00 1294.67 0.00 -- 60.9 100.0
09/05/2018 07:00 1294.67 0.00 -- 60.8 100.0
09/05/2018 06:00 1294.67 0.00 -- 60.7 100.0
09/05/2018 05:00 1294.68 0.00 -- 60.6 100.0
09/05/2018 04:00 1294.68 0.00 -- 60.5 100.0
09/05/2018 03:00 1294.68 0.00 -- 60.4 100.0
09/05/2018 02:00 1294.68 0.00 -- 61.3 100.0
09/05/2018 01:00 1294.68 0.00 -- 61.5 100.0
09/05/2018 00:00 1294.68 0.00 0.00 63.1 100.0
09/04/2018 23:00 1294.68 0.00 -- 64.0 100.0
09/04/2018 22:00 1294.68 0.00 -- 65.4 99.0
09/04/2018 21:00 1294.68 0.00 -- 68.2 98.0
09/04/2018 20:00 1294.68 0.00 -- 73.0 79.0
09/04/2018 19:00 1294.69 0.00 -- 77.9 61.0
09/04/2018 18:00 1294.69 0.00 -- 81.4 55.0
09/04/2018 17:00 1294.71 0.00 -- 81.8 48.0
09/04/2018 16:00 1294.71 0.00 -- 82.1 48.0
09/04/2018 15:00 1294.69 0.00 -- 80.5 50.0
09/04/2018 14:00 1294.65 0.00 -- 78.8 56.0
09/04/2018 13:00 1294.67 0.00 -- 78.2 54.0
09/04/2018 12:00 1294.71 0.00 -- 76.4 64.0
09/04/2018 11:00 1294.69 0.00 -- 74.8 69.0
09/04/2018 10:00 1294.68 0.00 -- 72.0 84.0
09/04/2018 09:00 1294.68 0.00 -- 66.8 100.0
09/04/2018 08:00 1294.69 0.00 -- 65.0 100.0
09/04/2018 07:00 1294.68 0.00 -- 65.1 100.0
09/04/2018 06:00 1294.68 0.00 -- 66.0 100.0
09/04/2018 05:00 1294.69 0.00 -- 66.9 100.0
09/04/2018 04:00 1294.69 0.00 -- 67.8 100.0
09/04/2018 03:00 1294.68 0.00 -- 69.2 99.0
09/04/2018 02:00 1294.70 0.00 -- 73.2 86.0
09/04/2018 01:00 1294.68 0.00 -- 73.4 88.0
09/04/2018 00:00 1294.69 0.00 0.00 73.0 92.0
09/03/2018 23:00 1294.69 0.00 -- 75.7 80.0
09/03/2018 22:00 1294.69 0.00 -- 76.3 82.0
09/03/2018 21:00 1294.69 0.00 -- 74.7 91.0
09/03/2018 20:00 1294.70 0.00 -- 79.5 73.0
09/03/2018 19:00 1294.68 0.00 -- 83.1 57.0
09/03/2018 18:00 1294.67 0.00 -- 84.2 55.0
09/03/2018 17:00 1294.66 0.00 -- 84.5 56.0
09/03/2018 16:00 1294.69 0.00 -- 83.0 62.0
09/03/2018 15:00 1294.69 0.00 -- 82.9 64.0
09/03/2018 14:00 1294.68 0.00 -- 81.8 65.0
09/03/2018 13:00 1294.66 0.00 -- 80.2 69.0
09/03/2018 12:00 1294.65 0.00 -- 77.3 78.0
09/03/2018 11:00 1294.68 0.00 -- 71.2 95.0
09/03/2018 10:00 1294.68 0.00 -- 67.7 100.0
09/03/2018 09:00 1294.68 0.00 -- 66.5 100.0
09/03/2018 08:00 1294.68 0.00 -- 66.5 100.0
09/03/2018 07:00 1294.69 0.00 -- 66.6 100.0
09/03/2018 06:00 1294.68 0.00 -- 67.1 100.0
09/03/2018 05:00 1294.68 0.00 -- 67.3 100.0
09/03/2018 04:00 1294.67 0.00 -- 67.5 100.0
09/03/2018 03:00 1294.68 0.00 -- 67.8 100.0
09/03/2018 02:00 1294.68 0.00 -- 67.7 100.0
09/03/2018 01:00 1294.68 0.00 -- 67.2 100.0
09/03/2018 00:00 1294.68 0.00 0.00 66.5 100.0
09/02/2018 23:00 1294.69 0.00 -- 66.8 100.0
09/02/2018 22:00 1294.69 0.00 -- 66.4 100.0
09/02/2018 21:00 1294.70 0.00 -- 68.0 99.0
09/02/2018 20:00 1294.70 0.00 -- 71.6 86.0
09/02/2018 19:00 1294.69 0.00 -- 74.2 76.0
09/02/2018 18:00 1294.68 0.00 -- 74.4 71.0
09/02/2018 17:00 1294.70 0.00 -- 73.5 71.0
09/02/2018 16:00 1294.69 0.00 -- 73.7 70.0
09/02/2018 15:00 1294.72 0.00 -- 74.7 69.0
09/02/2018 14:00 1294.68 0.00 -- 72.8 69.0
09/02/2018 13:00 1294.68 0.00 -- 71.6 70.0
09/02/2018 12:00 1294.69 0.00 -- 69.3 75.0
09/02/2018 11:00 1294.68 0.00 -- 66.5 83.0
09/02/2018 10:00 1294.68 0.00 -- 62.4 93.0
09/02/2018 09:00 1294.69 0.00 -- 60.2 99.0
09/02/2018 08:00 1294.69 0.00 -- 58.2 100.0
09/02/2018 07:00 1294.69 0.00 -- 57.6 100.0
09/02/2018 06:00 1294.70 0.00 -- 55.7 100.0
09/02/2018 05:00 1294.69 0.00 -- 54.8 100.0
09/02/2018 04:00 1294.70 0.00 -- 54.5 100.0
09/02/2018 03:00 1294.71 0.00 -- 53.9 100.0
09/02/2018 02:00 1294.71 0.00 -- 54.8 100.0
09/02/2018 01:00 1294.71 0.00 -- 55.4 100.0
09/02/2018 00:00 1294.71 0.00 0.00 55.8 100.0
09/01/2018 23:00 1294.71 0.00 -- 57.0 100.0
09/01/2018 22:00 1294.71 0.00 -- 58.3 99.0
09/01/2018 21:00 1294.71 0.00 -- 60.3 96.0
09/01/2018 20:00 1294.71 0.00 -- 63.5 87.0
09/01/2018 19:00 1294.72 0.00 -- 66.3 76.0
09/01/2018 18:00 1294.71 0.00 -- 68.3 66.0
09/01/2018 17:00 1294.71 0.00 -- 66.8 69.0
09/01/2018 16:00 1294.71 0.00 -- 65.6 71.0
09/01/2018 15:00 1294.71 0.00 -- 65.2 70.0
09/01/2018 14:00 1294.71 0.00 -- 64.8 67.0
09/01/2018 13:00 1294.70 0.00 -- 63.2 70.0
09/01/2018 12:00 1294.70 0.00 -- 62.3 67.0
09/01/2018 11:00 1294.71 0.00 -- 60.9 70.0
09/01/2018 10:00 1294.71 0.00 -- 58.5 77.0
09/01/2018 09:00 1294.71 0.00 -- 56.8 81.0
09/01/2018 08:00 1294.71 0.00 -- 53.0 97.0
09/01/2018 07:00 1294.72 0.00 -- 52.2 96.0
09/01/2018 06:00 1294.72 0.00 -- 54.2 90.0
09/01/2018 05:00 1294.72 0.00 -- 56.6 83.0
09/01/2018 04:00 1294.72 0.00 -- 56.8 75.0
09/01/2018 03:00 1294.72 0.00 -- 57.2 73.0
09/01/2018 02:00 1294.72 0.00 -- 57.2 75.0
09/01/2018 01:00 1294.72 0.00 -- 56.9 84.0
09/01/2018 00:00 1294.72 0.00 0.00 56.5 84.0
08/31/2018 23:00 1294.72 0.00 -- 57.0 81.0
08/31/2018 22:00 1294.72 0.00 -- 58.6 81.0
08/31/2018 21:00 1294.72 0.00 -- 60.8 78.0
08/31/2018 20:00 1294.72 0.00 -- 62.8 77.0
08/31/2018 19:00 1294.72 0.00 -- 64.3 76.0
08/31/2018 18:00 1294.72 0.00 -- 64.5 72.0
08/31/2018 17:00 1294.73 0.00 -- 67.7 62.0
08/31/2018 16:00 1294.73 0.00 -- 68.4 61.0
08/31/2018 15:00 1294.73 0.00 -- 66.3 67.0
08/31/2018 14:00 1294.73 0.00 -- 66.8 58.0
08/31/2018 13:00 1294.74 0.00 -- 66.7 60.0
08/31/2018 12:00 1294.72 0.00 -- 64.9 65.0
08/31/2018 11:00 1294.73 0.00 -- 61.8 66.0
08/31/2018 10:00 1294.73 0.00 -- 60.4 73.0
08/31/2018 09:00 1294.74 0.00 -- 58.1 77.0
08/31/2018 08:00 1294.74 0.00 -- 56.5 85.0
08/31/2018 07:00 1294.74 0.00 -- 56.3 86.0
08/31/2018 06:00 1294.74 0.00 -- 56.1 87.0
08/31/2018 05:00 1294.74 0.00 -- 56.9 87.0
08/31/2018 04:00 1294.74 0.00 -- 56.1 90.0
08/31/2018 03:00 1294.74 0.00 -- 54.8 96.0
08/31/2018 02:00 1294.74 0.00 -- 54.3 99.0
08/31/2018 01:00 1294.74 0.00 -- 54.4 90.0
08/31/2018 00:00 1294.75 0.00 0.00 56.3 82.0
08/30/2018 23:00 1294.76 0.00 -- 58.4 79.0
08/30/2018 22:00 1294.76 0.00 -- 60.6 79.0
08/30/2018 21:00 1294.76 0.00 -- 63.1 72.0
08/30/2018 20:00 1294.77 0.00 -- 66.6 67.0
08/30/2018 19:00 1294.77 0.00 -- 71.0 61.0
08/30/2018 18:00 1294.80 0.00 -- 74.5 58.0
08/30/2018 17:00 1294.77 0.00 -- 76.2 53.0
08/30/2018 16:00 1294.80 0.00 -- 74.0 58.0
08/30/2018 15:00 1294.75 0.00 -- 73.8 61.0
08/30/2018 14:00 1294.81 0.00 -- 74.5 61.0
08/30/2018 13:00 1294.78 0.00 -- 73.5 65.0
08/30/2018 12:00 1294.77 0.00 -- 70.4 78.0
08/30/2018 11:00 1294.77 0.00 -- 70.0 85.0
08/30/2018 10:00 1294.77 0.00 -- 71.0 86.0
08/30/2018 09:00 1294.76 0.00 -- 71.3 84.0
08/30/2018 08:00 1294.76 0.00 -- 70.3 88.0
08/30/2018 07:00 1294.76 0.00 -- 68.5 98.0
08/30/2018 06:00 1294.77 0.00 -- 68.7 99.0
08/30/2018 05:00 1294.76 0.00 -- 69.5 94.0
08/30/2018 04:00 1294.76 0.00 -- 70.3 88.0
08/30/2018 03:00 1294.76 0.00 -- 72.1 82.0
08/30/2018 02:00 1294.76 0.00 -- 71.7 81.0
08/30/2018 01:00 1294.76 0.00 -- 69.8 91.0
08/30/2018 00:00 1294.77 0.00 0.00 71.9 83.0
08/29/2018 23:00 1294.78 0.00 -- 75.1 72.0
08/29/2018 22:00 1294.79 0.00 -- 77.1 69.0
08/29/2018 21:00 1294.77 0.00 -- 75.8 83.0
08/29/2018 20:00 1294.78 0.00 -- 77.6 79.0
08/29/2018 19:00 1294.77 0.00 -- 84.6 56.0
08/29/2018 18:00 1294.76 0.00 -- 86.5 53.0
08/29/2018 17:00 1294.76 0.00 -- 86.1 53.0
08/29/2018 16:00 1294.74 0.00 -- 86.8 51.0
08/29/2018 15:00 1294.74 0.00 -- 84.4 61.0
08/29/2018 14:00 1294.75 0.00 -- 84.5 61.0
08/29/2018 13:00 1294.77 0.00 -- 83.6 63.0
08/29/2018 12:00 1294.76 0.00 -- 81.5 67.0
08/29/2018 11:00 1294.77 0.00 -- 77.9 76.0
08/29/2018 10:00 1294.76 0.00 -- 75.3 79.0
08/29/2018 09:00 1294.76 0.00 -- 72.5 88.0
08/29/2018 08:00 1294.78 0.00 -- 66.6 100.0
08/29/2018 07:00 1294.78 0.00 -- 66.4 100.0
08/29/2018 06:00 1294.78 0.00 -- 67.0 100.0
08/29/2018 05:00 1294.79 0.00 -- 67.7 100.0
08/29/2018 04:00 1294.78 0.00 -- 68.6 100.0
08/29/2018 03:00 1294.79 0.00 -- 70.4 97.0
08/29/2018 02:00 1294.78 0.00 -- 75.3 77.0
08/29/2018 01:00 1294.79 0.00 -- 74.7 89.0
08/29/2018 00:00 1294.78 0.00 0.00 74.8 87.0
08/28/2018 23:00 1294.77 0.00 -- 77.2 80.0
08/28/2018 22:00 1294.79 0.00 -- 76.0 85.0
08/28/2018 21:00 1294.79 0.00 -- 77.1 78.0
08/28/2018 20:00 1294.79 0.00 -- 79.8 72.0
08/28/2018 19:00 1294.78 0.00 -- 83.1 63.0
08/28/2018 18:00 1294.79 0.00 -- 86.1 57.0
08/28/2018 17:00 1294.80 0.00 -- 85.8 54.0
08/28/2018 16:00 1294.79 0.00 -- 86.1 50.0
08/28/2018 15:00 1294.80 0.00 -- 85.0 56.0
08/28/2018 14:00 1294.79 0.00 -- 83.4 60.0
08/28/2018 13:00 1294.78 0.00 -- 82.5 64.0
08/28/2018 12:00 1294.78 0.00 -- 79.5 74.0
08/28/2018 11:00 1294.79 0.00 -- 76.4 79.0
08/28/2018 10:00 1294.79 0.00 -- 71.4 97.0
08/28/2018 09:00 1294.79 0.00 -- 69.4 100.0
08/28/2018 08:00 1294.80 0.00 -- 69.5 100.0
08/28/2018 07:00 1294.78 0.00 -- 69.8 100.0
08/28/2018 06:00 1294.80 0.00 -- 68.0 100.0
08/28/2018 05:00 1294.80 0.00 -- 68.3 100.0
08/28/2018 04:00 1294.80 0.00 -- 66.8 100.0
08/28/2018 03:00 1294.81 0.00 -- 65.5 100.0
08/28/2018 02:00 1294.81 0.00 -- 65.7 100.0
08/28/2018 01:00 1294.81 0.00 -- 65.9 100.0
08/28/2018 00:00 1294.81 0.00 0.00 66.1 100.0
08/27/2018 23:00 1294.82 0.00 -- 67.1 100.0
08/27/2018 22:00 1294.82 0.00 -- 67.7 99.0
08/27/2018 21:00 1294.82 0.00 -- 70.2 93.0
08/27/2018 20:00 1294.83 0.00 -- 74.1 84.0
08/27/2018 19:00 1294.81 0.00 -- 77.9 66.0
08/27/2018 18:00 1294.82 0.00 -- 80.3 57.0
08/27/2018 17:00 1294.82 0.00 -- 80.5 56.0
08/27/2018 16:00 1294.79 0.00 -- 79.8 56.0
08/27/2018 15:00 1294.82 0.00 -- 78.7 58.0
08/27/2018 14:00 1294.83 0.00 -- 77.4 56.0
08/27/2018 13:00 1294.74 0.00 -- 74.9 61.0
08/27/2018 12:00 1294.77 0.00 -- 73.8 64.0
08/27/2018 11:00 1294.77 0.00 -- 71.2 75.0
08/27/2018 10:00 1294.77 0.00 -- 68.7 82.0
08/27/2018 09:00 1294.78 0.00 -- 65.3 100.0
08/27/2018 08:00 1294.79 0.00 -- 61.3 100.0
08/27/2018 07:00 1294.79 0.00 -- 60.3 100.0
08/27/2018 06:00 1294.79 0.00 -- 61.2 100.0
08/27/2018 05:00 1294.79 0.00 -- 61.7 100.0
08/27/2018 04:00 1294.78 0.00 -- 62.8 100.0
08/27/2018 03:00 1294.79 0.00 -- 65.8 100.0
08/27/2018 02:00 1294.78 0.00 -- 66.1 100.0
08/27/2018 01:00 1294.79 0.00 -- 67.2 100.0
08/27/2018 00:00 1294.78 0.00 0.00 67.2 99.0
08/26/2018 23:00 1294.79 0.00 -- 66.9 99.0
08/26/2018 22:00 1294.79 0.00 -- 66.1 100.0
08/26/2018 21:00 1294.79 0.00 -- 66.8 99.0
08/26/2018 20:00 1294.79 0.00 -- 70.8 81.0
08/26/2018 19:00 1294.79 0.00 -- 72.8 73.0
08/26/2018 18:00 1294.79 0.00 -- 73.0 73.0
08/26/2018 17:00 1294.80 0.00 -- 74.0 66.0
08/26/2018 16:00 1294.80 0.00 -- 76.1 58.0
08/26/2018 15:00 1294.81 0.00 -- 74.4 59.0
08/26/2018 14:00 1294.80 0.00 -- 74.7 56.0
08/26/2018 13:00 1294.77 0.00 -- 72.1 60.0
08/26/2018 12:00 1294.76 0.00 -- 69.6 65.0
08/26/2018 11:00 1294.78 0.00 -- 65.8 78.0
08/26/2018 10:00 1294.78 0.00 -- 62.4 89.0
08/26/2018 09:00 1294.79 0.00 -- 56.6 100.0
08/26/2018 08:00 1294.80 0.00 -- 55.0 100.0
08/26/2018 07:00 1294.80 0.00 -- 54.4 100.0
08/26/2018 06:00 1294.80 0.00 -- 54.9 100.0
08/26/2018 05:00 1294.81 0.00 -- 55.6 100.0
08/26/2018 04:00 1294.81 0.00 -- 57.0 99.0
08/26/2018 03:00 1294.81 0.00 -- 57.0 99.0
08/26/2018 02:00 1294.81 0.00 -- 57.7 96.0
08/26/2018 01:00 1294.81 0.00 -- 58.5 89.0
08/26/2018 00:00 1294.82 0.00 0.00 58.7 97.0
08/25/2018 23:00 1294.82 0.00 -- 59.4 99.0
08/25/2018 22:00 1294.82 0.00 -- 60.8 95.0
08/25/2018 21:00 1294.83 0.00 -- 63.5 84.0
08/25/2018 20:00 1294.83 0.00 -- 66.6 77.0
08/25/2018 19:00 1294.82 0.00 -- 72.5 57.0
08/25/2018 18:00 1294.82 0.00 -- 74.5 55.0
08/25/2018 17:00 1294.83 0.00 -- 75.9 53.0
08/25/2018 16:00 1294.79 0.00 -- 74.0 52.0
08/25/2018 15:00 1294.81 0.00 -- 73.8 57.0
08/25/2018 14:00 1294.81 0.00 -- 72.9 53.0
08/25/2018 13:00 1294.83 0.00 -- 73.1 53.0
08/25/2018 12:00 1294.81 0.00 -- 70.4 67.0
08/25/2018 11:00 1294.82 0.00 -- 66.9 75.0
08/25/2018 10:00 1294.83 0.00 -- 62.5 92.0
08/25/2018 09:00 1294.83 0.00 -- 59.0 100.0
08/25/2018 08:00 1294.84 0.00 -- 54.6 100.0
08/25/2018 07:00 1294.84 0.00 -- 54.2 100.0
08/25/2018 06:00 1294.85 0.00 -- 55.0 100.0
08/25/2018 05:00 1294.85 0.00 -- 55.1 100.0
08/25/2018 04:00 1294.85 0.00 -- 55.8 100.0
08/25/2018 03:00 1294.85 0.00 -- 55.6 100.0
08/25/2018 02:00 1294.86 0.00 -- 56.5 100.0
08/25/2018 01:00 1294.86 0.00 -- 57.4 100.0
08/25/2018 00:00 1294.86 0.00 0.00 58.8 100.0
08/24/2018 23:00 1294.86 0.00 -- 60.4 100.0
08/24/2018 22:00 1294.87 0.00 -- 62.4 100.0
08/24/2018 21:00 1294.87 0.00 -- 65.1 99.0
08/24/2018 20:00 1294.88 0.00 -- 68.9 88.0
08/24/2018 19:00 1294.87 0.00 -- 74.5 64.0
08/24/2018 18:00 1294.89 0.00 -- 77.4 54.0
08/24/2018 17:00 1294.88 0.00 -- 77.3 54.0
08/24/2018 16:00 1294.86 0.00 -- 77.1 47.0
08/24/2018 15:00 1294.86 0.00 -- 76.1 47.0
08/24/2018 14:00 1294.86 0.00 -- 74.5 50.0
08/24/2018 13:00 1294.86 0.00 -- 72.6 53.0
08/24/2018 12:00 1294.84 0.00 -- 69.7 60.0
08/24/2018 11:00 1294.88 0.00 -- 65.7 74.0
08/24/2018 10:00 1294.87 0.00 -- 61.2 76.0
08/24/2018 09:00 1294.87 0.00 -- 56.6 85.0
08/24/2018 08:00 1294.89 0.00 -- 50.1 100.0
08/24/2018 07:00 1294.89 0.00 -- 50.1 100.0
08/24/2018 06:00 1294.89 0.00 -- 50.1 100.0
08/24/2018 05:00 1294.89 0.00 -- 49.4 100.0
08/24/2018 04:00 1294.89 0.00 -- 49.7 100.0
08/24/2018 03:00 1294.90 0.00 -- 49.6 99.0
08/24/2018 02:00 1294.90 0.00 -- 49.5 100.0
08/24/2018 01:00 1294.90 0.00 -- 49.3 100.0
08/24/2018 00:00 1294.90 0.00 0.00 50.4 99.0
08/23/2018 23:00 1294.90 0.00 -- 51.2 99.0
08/23/2018 22:00 1294.91 0.00 -- 53.4 99.0
08/23/2018 21:00 1294.92 0.00 -- 56.3 93.0
08/23/2018 20:00 1294.92 0.00 -- 62.3 72.0
08/23/2018 19:00 1294.93 0.00 -- 67.0 51.0
08/23/2018 18:00 1294.93 0.00 -- 69.2 48.0
08/23/2018 17:00 1294.94 0.00 -- 69.6 43.0
08/23/2018 16:00 1294.92 0.00 -- 66.9 46.0
08/23/2018 15:00 1294.93 0.00 -- 68.3 46.0
08/23/2018 14:00 1294.95 0.00 -- 66.3 52.0
08/23/2018 13:00 1294.92 0.00 -- 65.1 49.0
08/23/2018 12:00 1294.93 0.00 -- 63.3 53.0
08/23/2018 11:00 1294.95 0.00 -- 62.1 60.0
08/23/2018 10:00 1294.94 0.00 -- 56.8 70.0
08/23/2018 09:00 1294.94 0.00 -- 55.3 81.0
08/23/2018 08:00 1294.94 0.00 -- 55.3 81.0
08/23/2018 07:00 1294.95 0.00 -- 54.2 93.0
08/23/2018 06:00 1294.94 0.00 -- 54.9 99.0
08/23/2018 05:00 1294.95 0.00 -- 54.5 99.0
08/23/2018 04:00 1294.95 0.00 -- 56.2 99.0
08/23/2018 03:00 1294.96 0.00 -- 58.0 97.0
08/23/2018 02:00 1294.95 0.00 -- 59.4 99.0
08/23/2018 01:00 1294.96 0.00 -- 61.3 96.0
08/23/2018 00:00 1294.95 0.00 0.00 61.1 99.0
08/22/2018 23:00 1294.95 0.00 -- 60.9 100.0
08/22/2018 22:00 1294.95 0.00 -- 62.4 100.0
08/22/2018 21:00 1294.95 0.01 -- 64.0 99.0
08/22/2018 20:00 1294.95 0.00 -- 65.0 99.0
08/22/2018 19:00 1294.94 0.05 -- 65.4 99.0
08/22/2018 18:00 1295.00 0.01 -- 68.2 85.0
08/22/2018 17:00 1294.96 0.00 -- 73.0 68.0
08/22/2018 16:00 1294.96 0.00 -- 73.7 69.0
08/22/2018 15:00 1294.90 0.00 -- 71.5 80.0
08/22/2018 14:00 1294.90 0.00 -- 69.4 86.0
08/22/2018 13:00 1294.95 0.00 -- 65.7 100.0
08/22/2018 12:00 1294.94 0.00 -- 64.1 100.0
08/22/2018 11:00 1294.95 0.05 -- 61.8 100.0
08/22/2018 10:00 1294.94 0.28 -- 60.3 100.0
08/22/2018 09:00 1294.93 0.27 -- 60.2 100.0
08/22/2018 08:00 1294.92 0.04 -- 59.9 100.0
08/22/2018 07:00 1294.91 0.03 -- 60.1 100.0
08/22/2018 06:00 1294.91 0.00 -- 60.1 100.0
08/22/2018 05:00 1294.91 0.00 -- 60.4 100.0
08/22/2018 04:00 1294.91 0.00 -- 60.4 100.0
08/22/2018 03:00 1294.91 0.00 -- 60.6 100.0
08/22/2018 02:00 1294.92 0.00 -- 60.5 100.0
08/22/2018 01:00 1294.92 0.00 -- 60.7 100.0
08/22/2018 00:00 1294.92 0.00 0.74 61.6 99.0
08/21/2018 23:00 1294.93 0.00 -- 61.9 99.0
08/21/2018 22:00 1294.93 0.00 -- 62.6 97.0
08/21/2018 21:00 1294.94 0.00 -- 63.0 94.0
08/21/2018 20:00 1294.94 0.00 -- 64.2 88.0
08/21/2018 19:00 1294.94 0.00 -- 66.1 81.0
08/21/2018 18:00 1294.94 0.00 -- 68.1 72.0
08/21/2018 17:00 1294.94 0.00 -- 71.0 64.0
08/21/2018 16:00 1294.96 0.00 -- 68.0 68.0
08/21/2018 15:00 1294.92 0.00 -- 68.8 63.0
08/21/2018 14:00 1294.91 0.00 -- 66.9 69.0
08/21/2018 13:00 1294.97 0.00 -- 66.4 64.0
08/21/2018 12:00 1294.94 0.00 -- 65.1 70.0
08/21/2018 11:00 1294.96 0.00 -- 62.4 80.0
08/21/2018 10:00 1294.96 0.00 -- 58.6 99.0
08/21/2018 09:00 1294.97 0.00 -- 54.1 100.0
08/21/2018 08:00 1294.97 0.00 -- 51.5 100.0
08/21/2018 07:00 1294.98 0.00 -- 51.5 100.0
08/21/2018 06:00 1294.98 0.00 -- 51.6 100.0
08/21/2018 05:00 1294.98 0.00 -- 52.5 100.0
08/21/2018 04:00 1294.99 0.00 -- 52.9 100.0
08/21/2018 03:00 1294.99 0.00 -- 53.0 100.0
08/21/2018 02:00 1294.99 0.00 -- 53.6 100.0
08/21/2018 01:00 1295.00 0.00 -- 54.3 100.0
08/21/2018 00:00 1295.00 0.00 0.00 55.8 100.0
08/20/2018 23:00 1295.00 0.00 -- 57.1 99.0
08/20/2018 22:00 1295.01 0.00 -- 59.0 98.0
08/20/2018 21:00 1295.01 0.00 -- 60.9 89.0
08/20/2018 20:00 1295.01 0.00 -- 64.3 81.0
08/20/2018 19:00 1295.02 0.00 -- 69.1 68.0
08/20/2018 18:00 1295.01 0.00 -- 72.1 58.0
08/20/2018 17:00 1295.03 0.00 -- 70.1 64.0
08/20/2018 16:00 1295.05 0.00 -- 73.0 57.0
08/20/2018 15:00 1295.07 0.00 -- 71.3 58.0
08/20/2018 14:00 1294.98 0.00 -- 68.5 69.0
08/20/2018 13:00 1295.02 0.00 -- 68.5 70.0
08/20/2018 12:00 1295.03 0.00 -- 69.0 65.0
08/20/2018 11:00 1295.04 0.00 -- 63.9 82.0
08/20/2018 10:00 1295.05 0.00 -- 62.5 86.0
08/20/2018 09:00 1295.05 0.00 -- 59.0 99.0
08/20/2018 08:00 1295.05 0.00 -- 57.9 99.0
08/20/2018 07:00 1295.06 0.00 -- 56.0 100.0
08/20/2018 06:00 1295.06 0.00 -- 54.7 100.0
08/20/2018 05:00 1295.06 0.00 -- 56.2 100.0
08/20/2018 04:00 1295.07 0.00 -- 56.2 100.0
08/20/2018 03:00 1295.07 0.00 -- 55.5 100.0
08/20/2018 02:00 1295.07 0.00 -- 56.3 100.0
08/20/2018 01:00 1295.07 0.00 -- 56.3 99.0
08/20/2018 00:00 1295.08 0.00 0.00 56.8 99.0
08/19/2018 23:00 1295.08 0.00 -- 58.1 99.0
08/19/2018 22:00 1295.09 0.00 -- 59.5 98.0
08/19/2018 21:00 1295.09 0.00 -- 61.7 90.0
08/19/2018 20:00 1295.10 0.00 -- 63.4 87.0
08/19/2018 19:00 1295.10 0.00 -- 66.4 71.0
08/19/2018 18:00 1295.09 0.00 -- 70.8 66.0
08/19/2018 17:00 1295.12 0.00 -- 71.3 58.0
08/19/2018 16:00 1295.12 0.00 -- 69.6 65.0
08/19/2018 15:00 1295.14 0.00 -- 70.9 55.0
08/19/2018 14:00 1295.16 0.00 -- 69.9 60.0
08/19/2018 13:00 1295.10 0.00 -- 68.7 60.0
08/19/2018 12:00 1295.11 0.00 -- 67.3 61.0
08/19/2018 11:00 1295.13 0.00 -- 64.9 70.0
08/19/2018 10:00 1295.12 0.00 -- 61.9 86.0
08/19/2018 09:00 1295.12 0.00 -- 59.7 99.0
08/19/2018 08:00 1295.11 0.00 -- 57.5 100.0
08/19/2018 07:00 1295.12 0.00 -- 57.1 100.0
08/19/2018 06:00 1295.13 0.00 -- 58.2 100.0
08/19/2018 05:00 1295.12 0.00 -- 60.5 97.0
08/19/2018 04:00 1295.12 0.00 -- 61.1 99.0
08/19/2018 03:00 1295.12 0.00 -- 61.3 99.0
08/19/2018 02:00 1295.12 0.00 -- 61.2 100.0
08/19/2018 01:00 1295.12 0.00 -- 61.3 99.0
08/19/2018 00:00 1295.12 0.00 0.00 61.8 99.0
08/18/2018 23:00 1295.12 0.00 -- 62.3 100.0
08/18/2018 22:00 1295.12 0.00 -- 63.3 99.0
08/18/2018 21:00 1295.11 0.00 -- 63.4 98.0
08/18/2018 20:00 1295.12 0.00 -- 64.5 91.0
08/18/2018 19:00 1295.12 0.00 -- 66.9 82.0
08/18/2018 18:00 1295.10 0.00 -- 67.1 86.0
08/18/2018 17:00 1295.09 0.00 -- 68.9 83.0
08/18/2018 16:00 1295.10 0.00 -- 70.6 85.0
08/18/2018 15:00 1295.09 0.00 -- 70.5 86.0
08/18/2018 14:00 1295.08 0.00 -- 68.4 93.0
08/18/2018 13:00 1295.10 0.02 -- 68.3 99.0
08/18/2018 12:00 1295.06 0.25 -- 65.8 100.0
08/18/2018 11:00 1295.05 0.00 -- 71.2 99.0
08/18/2018 10:00 1295.03 0.00 -- 69.0 100.0
08/18/2018 09:00 1295.02 0.01 -- 68.3 100.0
08/18/2018 08:00 1295.01 0.00 -- 67.8 100.0
08/18/2018 07:00 1295.00 0.01 -- 67.7 100.0
08/18/2018 06:00 1294.99 0.00 -- 67.5 100.0
08/18/2018 05:00 1294.99 0.00 -- 67.5 100.0
08/18/2018 04:00 1294.97 0.01 -- 67.7 100.0
08/18/2018 03:00 1294.97 0.02 -- 67.5 100.0
08/18/2018 02:00 1294.96 0.04 -- 67.8 100.0
08/18/2018 01:00 1294.95 0.01 -- 69.5 100.0
08/18/2018 00:00 1294.95 0.04 0.37 70.8 100.0
08/17/2018 23:00 1294.93 0.16 -- 70.8 100.0
08/17/2018 22:00 1294.92 0.38 -- 68.6 100.0
08/17/2018 21:00 1294.88 0.53 -- 70.2 100.0
08/17/2018 20:00 1294.88 0.00 -- 71.7 100.0
08/17/2018 19:00 1294.87 0.00 -- 74.9 84.0
08/17/2018 18:00 1294.88 0.00 -- 77.0 76.0
08/17/2018 17:00 1294.86 0.00 -- 74.4 85.0
08/17/2018 16:00 1294.88 0.00 -- 74.1 82.0
08/17/2018 15:00 1294.87 0.00 -- 75.7 76.0
08/17/2018 14:00 1294.89 0.00 -- 74.2 77.0
08/17/2018 13:00 1294.87 0.00 -- 74.8 69.0
08/17/2018 12:00 1294.88 0.00 -- 70.2 73.0
08/17/2018 11:00 1294.88 0.00 -- 69.0 74.0
08/17/2018 10:00 1294.89 0.00 -- 65.4 83.0
08/17/2018 09:00 1294.90 0.00 -- 61.3 100.0
08/17/2018 08:00 1294.90 0.00 -- 58.3 100.0
08/17/2018 07:00 1294.90 0.00 -- 57.7 100.0
08/17/2018 06:00 1294.90 0.00 -- 58.8 100.0
08/17/2018 05:00 1294.91 0.00 -- 59.2 100.0
08/17/2018 04:00 1294.91 0.00 -- 59.7 100.0
08/17/2018 03:00 1294.91 0.00 -- 60.5 100.0
08/17/2018 02:00 1294.92 0.00 -- 61.5 100.0
08/17/2018 01:00 1294.92 0.00 -- 64.1 100.0
08/17/2018 00:00 1294.92 0.00 1.11 64.5 100.0
08/16/2018 23:00 1294.92 0.00 -- 65.1 100.0
08/16/2018 22:00 1294.92 0.00 -- 66.1 100.0
08/16/2018 21:00 1294.93 0.00 -- 68.9 99.0
08/16/2018 20:00 1294.93 0.00 -- 73.8 81.0
08/16/2018 19:00 1294.93 0.00 -- 79.4 60.0
08/16/2018 18:00 1294.92 0.00 -- 79.4 54.0
08/16/2018 17:00 1294.94 0.00 -- 77.9 55.0
08/16/2018 16:00 1294.93 0.00 -- 79.4 53.0
08/16/2018 15:00 1294.93 0.00 -- 78.6 56.0
08/16/2018 14:00 1294.95 0.00 -- 78.2 56.0
08/16/2018 13:00 1294.93 0.00 -- 76.4 67.0
08/16/2018 12:00 1294.93 0.00 -- 75.6 71.0
08/16/2018 11:00 1294.94 0.00 -- 73.2 79.0
08/16/2018 10:00 1294.95 0.00 -- 72.1 85.0
08/16/2018 09:00 1294.95 0.00 -- 68.2 99.0
08/16/2018 08:00 1294.95 0.00 -- 62.4 100.0
08/16/2018 07:00 1294.96 0.00 -- 62.3 100.0
08/16/2018 06:00 1294.96 0.00 -- 63.1 100.0
08/16/2018 05:00 1294.96 0.00 -- 63.9 100.0
08/16/2018 04:00 1294.97 0.00 -- 64.6 100.0
08/16/2018 03:00 1294.97 0.00 -- 65.5 100.0
08/16/2018 02:00 1294.97 0.00 -- 67.0 100.0
08/16/2018 01:00 1294.98 0.00 -- 69.1 97.0
08/16/2018 00:00 1294.97 0.00 0.00 65.4 100.0
08/15/2018 23:00 1294.97 0.00 -- 66.1 100.0
08/15/2018 22:00 1294.98 0.00 -- 66.7 100.0
08/15/2018 21:00 1294.98 0.00 -- 68.0 100.0
08/15/2018 20:00 1294.99 0.00 -- 72.3 87.0
08/15/2018 19:00 1294.99 0.00 -- 75.8 79.0
08/15/2018 18:00 1295.00 0.00 -- 79.7 61.0
08/15/2018 17:00 1294.99 0.00 -- 80.9 59.0
08/15/2018 16:00 1294.98 0.00 -- 80.5 60.0
08/15/2018 15:00 1294.98 0.00 -- 78.8 61.0
08/15/2018 14:00 1295.03 0.00 -- 76.0 66.0
08/15/2018 13:00 1295.01 0.00 -- 74.7 68.0
08/15/2018 12:00 1294.97 0.00 -- 72.8 81.0
08/15/2018 11:00 1294.99 0.00 -- 67.6 100.0
08/15/2018 10:00 1294.99 0.00 -- 65.6 100.0
08/15/2018 09:00 1295.00 0.00 -- 64.3 100.0
08/15/2018 08:00 1295.01 0.00 -- 63.3 100.0
08/15/2018 07:00 1295.01 0.00 -- 62.9 100.0
08/15/2018 06:00 1295.01 0.01 -- 63.3 100.0
08/15/2018 05:00 1295.01 0.00 -- 63.7 100.0
08/15/2018 04:00 1295.01 0.00 -- 63.6 100.0
08/15/2018 03:00 1295.02 0.00 -- 63.8 100.0
08/15/2018 02:00 1295.01 0.00 -- 63.9 100.0
08/15/2018 01:00 1295.01 0.04 -- 64.4 100.0
08/15/2018 00:00 1295.01 0.00 0.05 64.1 100.0
08/14/2018 23:00 1295.02 0.00 -- 63.8 100.0
08/14/2018 22:00 1295.01 0.00 -- 64.3 100.0
08/14/2018 21:00 1295.02 0.00 -- 65.9 100.0
08/14/2018 20:00 1295.03 0.00 -- 68.3 100.0
08/14/2018 19:00 1295.02 0.00 -- 71.4 92.0
08/14/2018 18:00 1295.02 0.00 -- 68.1 100.0
08/14/2018 17:00 1295.00 0.01 -- 72.4 96.0
08/14/2018 16:00 1295.01 0.12 -- 68.5 100.0
08/14/2018 15:00 1295.02 0.00 -- 70.4 100.0
08/14/2018 14:00 1295.03 0.00 -- 73.5 85.0
08/14/2018 13:00 1295.02 0.00 -- 71.7 93.0
08/14/2018 12:00 1295.01 0.00 -- 69.6 100.0
08/14/2018 11:00 1295.01 0.00 -- 66.4 100.0
08/14/2018 10:00 1295.01 0.00 -- 65.2 100.0
08/14/2018 09:00 1295.01 0.00 -- 64.8 100.0
08/14/2018 08:00 1295.01 0.00 -- 64.6 100.0
08/14/2018 07:00 1295.02 0.01 -- 64.8 100.0
08/14/2018 06:00 1295.01 0.00 -- 64.5 100.0
08/14/2018 05:00 1295.02 0.00 -- 64.5 100.0
08/14/2018 04:00 1295.02 0.00 -- 64.4 100.0
08/14/2018 03:00 1295.01 0.14 -- 64.3 100.0
08/14/2018 02:00 1295.02 0.03 -- 64.8 100.0
08/14/2018 01:00 1295.01 0.04 -- 64.6 100.0
08/14/2018 00:00 1295.01 0.02 0.35 64.7 100.0
08/13/2018 23:00 1295.02 0.00 -- 64.9 100.0
08/13/2018 22:00 1295.01 0.00 -- 65.2 100.0
08/13/2018 21:00 1295.02 0.02 -- 65.4 100.0
08/13/2018 20:00 1295.02 0.01 -- 65.5 100.0
08/13/2018 19:00 1295.02 0.01 -- 65.6 100.0
08/13/2018 18:00 1295.02 0.00 -- 65.4 100.0
08/13/2018 17:00 1295.02 0.00 -- 65.6 100.0
08/13/2018 16:00 1295.02 0.00 -- 65.7 100.0
08/13/2018 15:00 1295.02 0.00 -- 65.1 100.0
08/13/2018 14:00 1295.02 0.00 -- 65.2 100.0
08/13/2018 13:00 1295.02 0.00 -- 64.9 100.0
08/13/2018 12:00 1295.02 0.00 -- 64.0 100.0
08/13/2018 11:00 1295.03 0.01 -- 63.7 100.0
08/13/2018 10:00 1295.03 0.01 -- 63.9 100.0
08/13/2018 09:00 1295.02 0.00 -- 63.5 100.0
08/13/2018 08:00 1295.03 0.00 -- 63.5 100.0
08/13/2018 07:00 1295.03 0.00 -- 63.3 100.0
08/13/2018 06:00 1295.03 0.00 -- 63.3 100.0
08/13/2018 05:00 1295.03 0.00 -- 63.4 100.0
08/13/2018 04:00 1295.03 0.00 -- 63.4 100.0
08/13/2018 03:00 1295.03 0.00 -- 63.4 100.0
08/13/2018 02:00 1295.02 0.00 -- 63.3 100.0
08/13/2018 01:00 1295.03 0.00 -- 63.4 100.0
08/13/2018 00:00 1295.03 0.00 0.08 63.6 100.0
08/12/2018 23:00 1295.03 0.00 -- 63.4 100.0
08/12/2018 22:00 1295.03 0.00 -- 63.5 100.0
08/12/2018 21:00 1295.03 0.00 -- 63.7 100.0
08/12/2018 20:00 1295.02 0.00 -- 64.2 100.0
08/12/2018 19:00 1295.02 0.00 -- 63.8 100.0
08/12/2018 18:00 1295.02 0.00 -- 64.2 100.0
08/12/2018 17:00 1295.02 0.00 -- 64.5 100.0
08/12/2018 16:00 1295.01 0.00 -- 64.5 100.0
08/12/2018 15:00 1295.01 0.00 -- 64.5 100.0
08/12/2018 14:00 1295.00 0.00 -- 63.9 100.0
08/12/2018 13:00 1294.98 0.00 -- 64.2 100.0
08/12/2018 12:00 1294.98 0.00 -- 63.5 100.0
08/12/2018 11:00 1294.97 0.00 -- 62.7 100.0
08/12/2018 10:00 1294.96 0.01 -- 61.9 100.0
08/12/2018 09:00 1294.95 0.00 -- 61.2 100.0
08/12/2018 08:00 1294.94 0.00 -- 60.8 100.0
08/12/2018 07:00 1294.93 0.00 -- 61.0 100.0
08/12/2018 06:00 1294.91 0.04 -- 61.1 100.0
08/12/2018 05:00 1294.90 0.19 -- 61.1 100.0
08/12/2018 04:00 1294.88 0.30 -- 61.3 100.0
08/12/2018 03:00 1294.85 0.22 -- 61.2 100.0
08/12/2018 02:00 1294.84 0.16 -- 61.5 100.0
08/12/2018 01:00 1294.83 0.17 -- 61.2 100.0
08/12/2018 00:00 1294.81 0.15 1.09 61.5 100.0
08/11/2018 23:00 1294.80 0.13 -- 62.1 100.0
08/11/2018 22:00 1294.80 0.01 -- 62.4 100.0
08/11/2018 21:00 1294.80 0.00 -- 62.2 100.0
08/11/2018 20:00 1294.79 0.02 -- 62.3 100.0
08/11/2018 19:00 1294.79 0.00 -- 61.7 100.0
08/11/2018 18:00 1294.79 0.01 -- 61.2 100.0
08/11/2018 17:00 1294.80 0.05 -- 61.2 100.0
08/11/2018 16:00 1294.78 0.06 -- 60.5 100.0
08/11/2018 15:00 1294.77 0.00 -- 60.6 99.0
08/11/2018 14:00 1294.78 0.00 -- 61.9 99.0
08/11/2018 13:00 1294.77 0.00 -- 61.9 99.0
08/11/2018 12:00 1294.79 0.00 -- 61.7 99.0
08/11/2018 11:00 1294.78 0.01 -- 58.7 100.0
08/11/2018 10:00 1294.78 0.00 -- 58.7 100.0
08/11/2018 09:00 1294.78 0.02 -- 58.1 100.0
08/11/2018 08:00 1294.77 0.01 -- 58.7 100.0
08/11/2018 07:00 1294.77 0.00 -- 58.6 100.0
08/11/2018 06:00 1294.77 0.00 -- 58.5 99.0
08/11/2018 05:00 1294.77 0.00 -- 58.1 99.0
08/11/2018 04:00 1294.78 0.00 -- 58.3 99.0
08/11/2018 03:00 1294.78 0.00 -- 57.9 99.0
08/11/2018 02:00 1294.78 0.00 -- 55.9 100.0
08/11/2018 01:00 1294.78 0.00 -- 57.2 100.0
08/11/2018 00:00 1294.79 0.00 0.47 58.6 100.0
08/10/2018 23:00 1294.79 0.00 -- 59.6 99.0
08/10/2018 22:00 1294.79 0.00 -- 61.1 96.0
08/10/2018 21:00 1294.79 0.00 -- 65.9 81.0
08/10/2018 20:00 1294.79 0.00 -- 70.2 75.0
08/10/2018 19:00 1294.79 0.00 -- 75.4 50.0
08/10/2018 18:00 1294.81 0.00 -- 76.3 48.0
08/10/2018 17:00 1294.79 0.00 -- 76.7 45.0
08/10/2018 16:00 1294.80 0.00 -- 76.1 47.0
08/10/2018 15:00 1294.82 0.00 -- 75.4 51.0
08/10/2018 14:00 1294.79 0.00 -- 72.8 55.0
08/10/2018 13:00 1294.77 0.00 -- 71.9 62.0
08/10/2018 12:00 1294.83 0.00 -- 71.2 66.0
08/10/2018 11:00 1294.81 0.00 -- 69.5 75.0
08/10/2018 10:00 1294.81 0.00 -- 69.0 75.0
08/10/2018 09:00 1294.81 0.00 -- 64.9 86.0
08/10/2018 08:00 1294.80 0.00 -- 59.1 100.0
08/10/2018 07:00 1294.81 0.00 -- 59.7 100.0
08/10/2018 06:00 1294.81 0.00 -- 60.1 100.0
08/10/2018 05:00 1294.81 0.00 -- 60.0 100.0
08/10/2018 04:00 1294.81 0.00 -- 60.4 100.0
08/10/2018 03:00 1294.82 0.00 -- 60.4 100.0
08/10/2018 02:00 1294.82 0.00 -- 60.5 100.0
08/10/2018 01:00 1294.81 0.00 -- 61.3 100.0
08/10/2018 00:00 1294.82 0.00 0.00 62.6 100.0
08/09/2018 23:00 1294.83 0.00 -- 64.0 100.0
08/09/2018 22:00 1294.84 0.00 -- 66.3 93.0
08/09/2018 21:00 1294.83 0.00 -- 69.5 86.0
08/09/2018 20:00 1294.84 0.00 -- 75.7 68.0
08/09/2018 19:00 1294.83 0.00 -- 80.3 50.0
08/09/2018 18:00 1294.85 0.00 -- 80.9 48.0
08/09/2018 17:00 1294.83 0.00 -- 80.2 56.0
08/09/2018 16:00 1294.83 0.00 -- 79.4 52.0
08/09/2018 15:00 1294.87 0.00 -- 77.8 61.0
08/09/2018 14:00 1294.81 0.00 -- 77.2 67.0
08/09/2018 13:00 1294.88 0.00 -- 75.8 63.0
08/09/2018 12:00 1294.81 0.00 -- 74.0 71.0
08/09/2018 11:00 1294.84 0.00 -- 73.5 76.0
08/09/2018 10:00 1294.82 0.01 -- 71.0 95.0
08/09/2018 09:00 1294.84 0.00 -- 68.1 100.0
08/09/2018 08:00 1294.84 0.00 -- 67.0 100.0
08/09/2018 07:00 1294.84 0.00 -- 66.8 100.0
08/09/2018 06:00 1294.85 0.00 -- 67.0 100.0
08/09/2018 05:00 1294.85 0.00 -- 67.1 100.0
08/09/2018 04:00 1294.85 0.00 -- 67.6 100.0
08/09/2018 03:00 1294.84 0.00 -- 68.0 100.0
08/09/2018 02:00 1294.84 0.02 -- 68.0 100.0
08/09/2018 01:00 1294.85 0.00 -- 68.0 100.0
08/09/2018 00:00 1294.86 0.00 0.03 68.1 100.0
08/08/2018 23:00 1294.86 0.00 -- 68.5 100.0
08/08/2018 22:00 1294.86 0.00 -- 68.7 100.0
08/08/2018 21:00 1294.86 0.00 -- 69.5 100.0
08/08/2018 20:00 1294.85 0.01 -- 70.3 100.0
08/08/2018 19:00 1294.86 0.00 -- 72.6 100.0
08/08/2018 18:00 1294.87 0.00 -- 75.2 95.0
08/08/2018 17:00 1294.82 0.00 -- 78.6 77.0
08/08/2018 16:00 1294.84 0.00 -- 81.4 70.0
08/08/2018 15:00 1294.83 0.00 -- 77.8 80.0
08/08/2018 14:00 1294.88 0.00 -- 79.3 68.0
08/08/2018 13:00 1294.86 0.00 -- 76.9 70.0
08/08/2018 12:00 1294.87 0.00 -- 75.9 70.0
08/08/2018 11:00 1294.85 0.00 -- 72.5 100.0
08/08/2018 10:00 1294.85 0.00 -- 68.7 100.0
08/08/2018 09:00 1294.85 0.00 -- 66.4 100.0
08/08/2018 08:00 1294.85 0.00 -- 65.3 100.0
08/08/2018 07:00 1294.85 0.00 -- 65.5 100.0
08/08/2018 06:00 1294.85 0.00 -- 65.6 100.0
08/08/2018 05:00 1294.85 0.00 -- 66.4 100.0
08/08/2018 04:00 1294.85 0.00 -- 67.1 100.0
08/08/2018 03:00 1294.85 0.00 -- 67.5 100.0
08/08/2018 02:00 1294.85 0.00 -- 68.2 100.0
08/08/2018 01:00 1294.84 0.00 -- 68.3 100.0
08/08/2018 00:00 1294.85 0.00 0.01 68.4 100.0
08/07/2018 23:00 1294.85 0.00 -- 69.3 100.0
08/07/2018 22:00 1294.83 0.00 -- 69.8 100.0
08/07/2018 21:00 1294.85 0.01 -- 71.1 100.0
08/07/2018 20:00 1294.85 0.03 -- 71.3 100.0
08/07/2018 19:00 1294.79 0.76 -- 69.3 100.0
08/07/2018 18:00 1294.80 0.00 -- 73.8 100.0
08/07/2018 17:00 1294.80 0.00 -- 73.8 100.0
08/07/2018 16:00 1294.79 0.08 -- 72.9 89.0
08/07/2018 15:00 1294.81 0.00 -- 79.7 66.0
08/07/2018 14:00 1294.74 0.00 -- 83.4 61.0
08/07/2018 13:00 1294.78 0.00 -- 82.6 63.0
08/07/2018 12:00 1294.74 0.00 -- 80.8 67.0
08/07/2018 11:00 1294.74 0.00 -- 77.9 72.0
08/07/2018 10:00 1294.74 0.00 -- 74.9 80.0
08/07/2018 09:00 1294.75 0.00 -- 72.2 90.0
08/07/2018 08:00 1294.76 0.00 -- 67.2 100.0
08/07/2018 07:00 1294.77 0.00 -- 65.9 100.0
08/07/2018 06:00 1294.77 0.00 -- 66.4 100.0
08/07/2018 05:00 1294.78 0.00 -- 67.0 100.0
08/07/2018 04:00 1294.78 0.00 -- 67.8 100.0
08/07/2018 03:00 1294.79 0.00 -- 68.4 100.0
08/07/2018 02:00 1294.79 0.00 -- 69.9 100.0
08/07/2018 01:00 1294.79 0.00 -- 69.8 100.0
08/07/2018 00:00 1294.80 0.00 0.88 68.8 100.0
08/06/2018 23:00 1294.81 0.00 -- 69.6 100.0
08/06/2018 22:00 1294.82 0.00 -- 70.9 95.0
08/06/2018 21:00 1294.83 0.00 -- 74.4 86.0
08/06/2018 20:00 1294.84 0.00 -- 80.1 71.0
08/06/2018 19:00 1294.83 0.00 -- 85.9 45.0
08/06/2018 18:00 1294.85 0.00 -- 86.8 44.0
08/06/2018 17:00 1294.83 0.00 -- 85.7 52.0
08/06/2018 16:00 1294.86 0.00 -- 85.8 48.0
08/06/2018 15:00 1294.86 0.00 -- 84.7 49.0
08/06/2018 14:00 1294.83 0.00 -- 83.5 51.0
08/06/2018 13:00 1294.87 0.00 -- 81.6 56.0
08/06/2018 12:00 1294.85 0.00 -- 80.0 62.0
08/06/2018 11:00 1294.86 0.00 -- 77.8 69.0
08/06/2018 10:00 1294.87 0.00 -- 73.7 79.0
08/06/2018 09:00 1294.88 0.00 -- 66.0 100.0
08/06/2018 08:00 1294.88 0.00 -- 62.6 100.0
08/06/2018 07:00 1294.89 0.00 -- 61.3 100.0
08/06/2018 06:00 1294.90 0.00 -- 61.5 100.0
08/06/2018 05:00 1294.90 0.00 -- 62.0 100.0
08/06/2018 04:00 1294.91 0.00 -- 62.8 100.0
08/06/2018 03:00 1294.91 0.00 -- 63.9 100.0
08/06/2018 02:00 1294.91 0.00 -- 64.4 100.0
08/06/2018 01:00 1294.93 0.00 -- 65.2 100.0
08/06/2018 00:00 1294.93 0.00 0.00 65.8 100.0
08/05/2018 23:00 1294.94 0.00 -- 66.9 100.0
08/05/2018 22:00 1294.94 0.00 -- 68.4 100.0
08/05/2018 21:00 1294.95 0.00 -- 71.6 92.0
08/05/2018 20:00 1294.96 0.00 -- 77.0 84.0
08/05/2018 19:00 1294.95 0.00 -- 83.4 55.0
08/05/2018 18:00 1294.97 0.00 -- 84.2 50.0
08/05/2018 17:00 1294.95 0.00 -- 83.7 52.0
08/05/2018 16:00 1294.96 0.00 -- 82.3 49.0
08/05/2018 15:00 1294.96 0.00 -- 81.6 52.0
08/05/2018 14:00 1294.96 0.00 -- 80.1 56.0
08/05/2018 13:00 1294.96 0.00 -- 78.0 61.0
08/05/2018 12:00 1294.98 0.00 -- 76.8 65.0
08/05/2018 11:00 1294.97 0.00 -- 74.9 69.0
08/05/2018 10:00 1294.98 0.00 -- 71.2 77.0
08/05/2018 09:00 1294.98 0.00 -- 63.8 100.0
08/05/2018 08:00 1294.99 0.00 -- 60.4 100.0
08/05/2018 07:00 1295.00 0.00 -- 59.8 100.0
08/05/2018 06:00 1295.00 0.00 -- 59.4 100.0
08/05/2018 05:00 1295.01 0.00 -- 59.7 100.0
08/05/2018 04:00 1295.01 0.00 -- 60.2 100.0
08/05/2018 03:00 1295.02 0.00 -- 60.4 100.0
08/05/2018 02:00 1295.02 0.00 -- 61.6 100.0
08/05/2018 01:00 1295.03 0.00 -- 62.4 100.0
08/05/2018 00:00 1295.03 0.00 0.00 64.0 100.0
08/04/2018 23:00 1295.03 0.00 -- 64.6 100.0
08/04/2018 22:00 1295.04 0.00 -- 66.7 100.0
08/04/2018 21:00 1295.05 0.00 -- 67.6 100.0
08/04/2018 20:00 1295.06 0.00 -- 70.4 92.0
08/04/2018 19:00 1295.07 0.00 -- 76.9 75.0
08/04/2018 18:00 1295.06 0.00 -- 77.2 79.0
08/04/2018 17:00 1295.05 0.00 -- 74.6 79.0
08/04/2018 16:00 1295.03 0.00 -- 71.7 98.0
08/04/2018 15:00 1295.04 0.11 -- 70.0 100.0
08/04/2018 14:00 1295.06 0.05 -- 67.1 100.0
08/04/2018 13:00 1295.07 0.00 -- 67.2 100.0
08/04/2018 12:00 1295.06 0.01 -- 68.1 100.0
08/04/2018 11:00 1295.04 0.01 -- 67.9 100.0
08/04/2018 10:00 1295.05 0.02 -- 68.2 100.0
08/04/2018 09:00 1295.05 0.03 -- 68.0 100.0
08/04/2018 08:00 1295.05 0.00 -- 68.4 100.0
08/04/2018 07:00 1295.05 0.01 -- 68.0 100.0
08/04/2018 06:00 1295.05 0.00 -- 68.1 100.0
08/04/2018 05:00 1295.06 0.00 -- 67.6 100.0
08/04/2018 04:00 1295.07 0.00 -- 66.4 100.0
08/04/2018 03:00 1295.08 0.00 -- 65.9 100.0
08/04/2018 02:00 1295.08 0.00 -- 65.0 100.0
08/04/2018 01:00 1295.10 0.00 -- 64.5 100.0
08/04/2018 00:00 1295.10 0.00 0.24 65.4 100.0
08/03/2018 23:00 1295.11 0.00 -- 66.0 100.0
08/03/2018 22:00 1295.12 0.03 -- 66.1 100.0
08/03/2018 21:00 1295.13 0.12 -- 66.8 100.0
08/03/2018 20:00 1295.11 0.06 -- 67.9 100.0
08/03/2018 19:00 1295.12 0.02 -- 68.7 100.0
08/03/2018 18:00 1295.12 0.33 -- 67.6 100.0
08/03/2018 17:00 1295.16 0.14 -- 69.5 99.0
08/03/2018 16:00 1295.12 0.00 -- 76.8 78.0
08/03/2018 15:00 1295.12 0.00 -- 75.4 84.0
08/03/2018 14:00 1295.13 0.00 -- 72.4 95.0
08/03/2018 13:00 1295.15 0.26 -- 70.2 100.0
08/03/2018 12:00 1295.15 0.00 -- 75.4 70.0
08/03/2018 11:00 1295.16 0.00 -- 73.7 77.0
08/03/2018 10:00 1295.16 0.00 -- 72.2 83.0
08/03/2018 09:00 1295.17 0.00 -- 69.7 93.0
08/03/2018 08:00 1295.18 0.00 -- 68.0 100.0
08/03/2018 07:00 1295.19 0.00 -- 66.7 100.0
08/03/2018 06:00 1295.20 0.00 -- 67.1 100.0
08/03/2018 05:00 1295.21 0.00 -- 68.2 100.0
08/03/2018 04:00 1295.22 0.00 -- 68.2 100.0
08/03/2018 03:00 1295.22 0.00 -- 68.3 100.0
08/03/2018 02:00 1295.22 0.00 -- 66.6 100.0
08/03/2018 01:00 1295.25 0.00 -- 64.9 100.0
08/03/2018 00:00 1295.26 0.00 0.96 65.1 100.0
08/02/2018 23:00 1295.27 0.00 -- 66.3 100.0
08/02/2018 22:00 1295.28 0.00 -- 68.6 94.0
08/02/2018 21:00 1295.29 0.00 -- 71.7 76.0
08/02/2018 20:00 1295.30 0.00 -- 72.0 76.0
08/02/2018 19:00 1295.31 0.00 -- 77.0 74.0
08/02/2018 18:00 1295.31 0.00 -- 78.9 61.0
08/02/2018 17:00 1295.30 0.00 -- 80.0 61.0
08/02/2018 16:00 1295.32 0.00 -- 82.1 59.0
08/02/2018 15:00 1295.33 0.00 -- 81.5 54.0
08/02/2018 14:00 1295.34 0.00 -- 79.9 54.0
08/02/2018 13:00 1295.34 0.00 -- 78.5 63.0
08/02/2018 12:00 1295.34 0.00 -- 75.4 77.0
08/02/2018 11:00 1295.31 0.00 -- 75.3 82.0
08/02/2018 10:00 1295.31 0.00 -- 71.9 99.0
08/02/2018 09:00 1295.32 0.00 -- 71.1 100.0
08/02/2018 08:00 1295.32 0.00 -- 70.6 100.0
08/02/2018 07:00 1295.31 0.00 -- 70.3 100.0
08/02/2018 06:00 1295.31 0.00 -- 70.6 100.0
08/02/2018 05:00 1295.30 0.00 -- 70.8 100.0
08/02/2018 04:00 1295.29 0.00 -- 70.7 100.0
08/02/2018 03:00 1295.27 0.00 -- 71.5 100.0
08/02/2018 02:00 1295.25 0.00 -- 71.5 100.0
08/02/2018 01:00 1295.23 0.00 -- 71.3 100.0
08/02/2018 00:00 1295.22 0.00 0.00 69.5 100.0
08/01/2018 23:00 1295.19 0.00 -- 66.7 100.0
08/01/2018 22:00 1295.16 0.01 -- 66.9 100.0
08/01/2018 21:00 1295.13 0.00 -- 67.3 100.0
08/01/2018 20:00 1295.10 0.18 -- 67.4 100.0
08/01/2018 19:00 1295.05 0.45 -- 67.6 100.0
08/01/2018 18:00 1295.00 0.65 -- 67.5 100.0
08/01/2018 17:00 1294.85 0.36 -- 67.8 100.0
08/01/2018 16:00 1294.82 0.10 -- 68.3 100.0
08/01/2018 15:00 1294.79 0.00 -- 69.8 91.0
08/01/2018 14:00 1294.83 0.00 -- 71.7 82.0
08/01/2018 13:00 1294.83 0.00 -- 70.6 82.0
08/01/2018 12:00 1294.83 0.00 -- 70.8 76.0
08/01/2018 11:00 1294.83 0.00 -- 70.0 77.0
08/01/2018 10:00 1294.83 0.00 -- 66.6 91.0
08/01/2018 09:00 1294.83 0.00 -- 64.6 89.0
08/01/2018 08:00 1294.83 0.00 -- 61.3 100.0
08/01/2018 07:00 1294.83 0.00 -- 60.2 100.0
08/01/2018 06:00 1294.82 0.00 -- 61.4 100.0
08/01/2018 05:00 1294.82 0.00 -- 60.9 100.0
08/01/2018 04:00 1294.82 0.00 -- 61.0 100.0
08/01/2018 03:00 1294.82 0.00 -- 61.3 99.0
08/01/2018 02:00 1294.82 0.00 -- 61.0 96.0
08/01/2018 01:00 1294.82 0.00 -- 61.3 95.0
08/01/2018 00:00 1294.82 0.00 1.75 62.6 90.0
07/31/2018 23:00 1294.82 0.00 -- 63.7 91.0
07/31/2018 22:00 1294.82 0.00 -- 66.1 83.0
07/31/2018 21:00 1294.82 0.00 -- 71.0 69.0
07/31/2018 20:00 1294.82 0.00 -- 78.2 59.0
07/31/2018 19:00 1294.82 0.00 -- 81.9 48.0
07/31/2018 18:00 1294.82 0.00 -- 81.7 40.0
07/31/2018 17:00 1294.82 0.00 -- 81.0 37.0
07/31/2018 16:00 1294.82 0.00 -- 80.6 43.0
07/31/2018 15:00 1294.82 0.00 -- 78.9 43.0
07/31/2018 14:00 1294.81 0.00 -- 78.3 42.0
07/31/2018 13:00 1294.81 0.00 -- 75.5 53.0
07/31/2018 12:00 1294.81 0.00 -- 73.9 65.0
07/31/2018 11:00 1294.81 0.00 -- 72.3 67.0
07/31/2018 10:00 1294.81 0.00 -- 68.5 84.0
07/31/2018 09:00 1294.81 0.00 -- 63.3 100.0
07/31/2018 08:00 1294.81 0.00 -- 60.0 100.0
07/31/2018 07:00 1294.81 0.00 -- 58.9 100.0
07/31/2018 06:00 1294.81 0.00 -- 58.5 100.0
07/31/2018 05:00 1294.81 0.00 -- 57.6 100.0
07/31/2018 04:00 1294.81 0.00 -- 57.6 100.0
07/31/2018 03:00 1294.81 0.00 -- 57.8 100.0
07/31/2018 02:00 1294.81 0.00 -- 58.4 100.0
07/31/2018 01:00 1294.81 0.00 -- 58.0 100.0
07/31/2018 00:00 1294.81 0.00 0.00 59.1 100.0
07/30/2018 23:00 1294.80 0.00 -- 60.9 98.0
07/30/2018 22:00 1294.80 0.00 -- 62.2 95.0
07/30/2018 21:00 1294.80 0.00 -- 64.5 86.0
07/30/2018 20:00 1294.80 0.00 -- 67.1 77.0
07/30/2018 19:00 1294.80 0.00 -- 70.7 62.0
07/30/2018 18:00 1294.80 0.00 -- 73.3 52.0
07/30/2018 17:00 1294.80 0.00 -- 75.3 46.0
07/30/2018 16:00 1294.80 -- -- 74.7 57.0
07/30/2018 15:00 1294.80 -- -- 74.6 49.0
07/30/2018 14:00 1294.80 0.00 -- 73.6 48.0
07/30/2018 13:00 1294.80 0.00 -- 73.0 48.0
07/30/2018 12:00 1294.80 0.00 -- 71.7 51.0
07/30/2018 11:00 1294.80 0.00 -- 69.6 65.0
07/30/2018 10:00 1294.80 0.00 -- 67.5 69.0
07/30/2018 09:00 1294.80 0.00 -- 59.2 100.0
07/30/2018 08:00 1294.80 0.00 -- 55.8 100.0
07/30/2018 07:00 1294.79 0.00 -- 54.3 100.0
07/30/2018 06:00 1294.79 0.00 -- 54.2 100.0
07/30/2018 05:00 1294.79 0.00 -- 54.3 100.0
07/30/2018 04:00 1294.79 0.00 -- 54.8 100.0
07/30/2018 03:00 1294.79 0.00 -- 55.4 100.0
07/30/2018 02:00 1294.79 0.00 -- 55.4 100.0
07/30/2018 01:00 1294.79 0.00 -- 56.4 100.0
07/30/2018 00:00 1294.79 0.00 -- 57.1 100.0
07/29/2018 23:00 1294.79 0.00 -- 58.1 99.0
07/29/2018 22:00 1294.79 0.00 -- 60.1 99.0
07/29/2018 21:00 1294.79 0.00 -- 64.2 84.0
07/29/2018 20:00 1294.79 0.00 -- 73.1 55.0
07/29/2018 19:00 1294.79 0.00 -- 75.7 51.0
07/29/2018 18:00 1294.79 0.00 -- 75.8 50.0
07/29/2018 17:00 1294.79 0.00 -- 74.4 47.0
07/29/2018 16:00 1294.78 0.00 -- 72.8 50.0
07/29/2018 15:00 1294.78 0.00 -- 73.2 48.0
07/29/2018 14:00 1294.78 0.00 -- 71.2 51.0
07/29/2018 13:00 1294.78 0.00 -- 69.5 57.0
07/29/2018 12:00 1294.78 0.00 -- 67.4 67.0
07/29/2018 11:00 1294.78 0.00 -- 65.7 79.0
07/29/2018 10:00 1294.78 0.00 -- 64.6 85.0
07/29/2018 09:00 1294.78 0.00 -- 61.6 99.0
07/29/2018 08:00 1294.78 0.00 -- 60.1 99.3
07/29/2018 07:00 1294.78 0.00 -- 58.5 99.7
07/29/2018 06:00 1294.78 0.00 -- 57.0 100.0
07/29/2018 05:00 1294.78 0.00 -- 58.1 100.0
07/29/2018 04:00 1294.78 0.00 -- 58.3 100.0
07/29/2018 03:00 1294.78 0.00 -- 58.2 100.0
07/29/2018 02:00 1294.78 0.00 -- 58.8 100.0
07/29/2018 01:00 1294.78 0.00 -- 59.0 100.0
07/29/2018 00:00 1294.77 0.00 0.01 58.9 100.0
07/28/2018 23:00 1294.77 0.00 -- 59.1 100.0
07/28/2018 22:00 1294.77 0.00 -- 59.8 100.0
07/28/2018 21:00 1294.77 0.30 -- 61.0 100.0
07/28/2018 20:00 1294.77 0.02 -- 63.3 100.0
07/28/2018 19:00 1294.77 0.04 -- 65.4 100.0
07/28/2018 18:00 1294.77 0.08 -- 64.3 100.0
07/28/2018 17:00 1294.77 0.44 -- 63.7 100.0
07/28/2018 16:00 1294.77 0.00 -- 80.1 61.0
07/28/2018 15:00 1294.77 0.00 -- 77.5 60.0
07/28/2018 14:00 1294.76 0.00 -- 76.8 62.0
07/28/2018 13:00 1294.75 0.00 -- 75.2 66.0
07/28/2018 12:00 1294.81 0.00 -- 72.8 72.0
07/28/2018 11:00 1294.77 0.00 -- 70.4 77.0
07/28/2018 10:00 1294.80 0.00 -- 67.1 97.0
07/28/2018 09:00 1294.77 0.00 -- 63.9 100.0
07/28/2018 08:00 1294.80 0.00 -- 62.6 100.0
07/28/2018 07:00 1294.77 0.00 -- 62.2 100.0
07/28/2018 06:00 1294.79 0.00 -- 62.5 100.0
07/28/2018 05:00 1294.81 0.01 -- 63.1 100.0
07/28/2018 04:00 1294.78 0.00 -- 63.2 100.0
07/28/2018 03:00 1294.81 0.00 -- 62.6 100.0
07/28/2018 02:00 1294.79 0.00 -- 62.6 100.0
07/28/2018 01:00 1294.76 0.01 -- 63.8 100.0
07/28/2018 00:00 1294.80 0.00 0.90 64.6 100.0
07/27/2018 23:00 1294.76 0.05 -- 64.6 100.0
07/27/2018 22:00 1294.77 0.00 -- 64.3 100.0
07/27/2018 21:00 1294.78 0.01 -- 64.5 100.0
07/27/2018 20:00 1294.79 0.04 -- 64.5 100.0
07/27/2018 19:00 1294.76 0.36 -- 63.4 100.0
07/27/2018 18:00 1294.78 0.00 -- 68.0 80.0
07/27/2018 17:00 1294.80 0.00 -- 75.9 71.0
07/27/2018 16:00 1294.74 0.00 -- 77.6 62.0
07/27/2018 15:00 1294.79 0.00 -- 74.6 82.0
07/27/2018 14:00 1294.74 0.00 -- 79.7 60.0
07/27/2018 13:00 1294.78 0.00 -- 79.7 59.0
07/27/2018 12:00 1294.77 0.00 -- 77.7 58.0
07/27/2018 11:00 1294.74 0.00 -- 75.0 74.0
07/27/2018 10:00 1294.78 0.00 -- 70.4 91.0
07/27/2018 09:00 1294.75 0.00 -- 65.4 100.0
07/27/2018 08:00 1294.77 0.00 -- 62.4 100.0
07/27/2018 07:00 1294.79 0.00 -- 59.6 100.0
07/27/2018 06:00 1294.74 0.00 -- 60.1 100.0
07/27/2018 05:00 1294.79 0.00 -- 60.6 100.0
07/27/2018 04:00 1294.75 0.00 -- 61.0 100.0
07/27/2018 03:00 1294.79 0.00 -- 61.8 100.0
07/27/2018 02:00 1294.75 0.00 -- 60.6 100.0
07/27/2018 01:00 1294.78 0.00 -- 60.3 100.0
07/27/2018 00:00 1294.74 0.00 0.46 60.6 100.0
07/26/2018 23:00 1294.77 0.00 -- 61.7 100.0
07/26/2018 22:00 1294.77 0.00 -- 63.5 100.0
07/26/2018 21:00 1294.80 0.00 -- 66.4 99.0
07/26/2018 20:00 1294.74 0.00 -- 72.8 81.0
07/26/2018 19:00 1294.75 0.00 -- 75.3 72.0
07/26/2018 18:00 1294.79 0.00 -- 74.9 77.0
07/26/2018 17:00 1294.75 0.00 -- 74.4 84.0
07/26/2018 16:00 1294.74 0.00 -- 69.3 100.0
07/26/2018 15:00 1294.77 0.28 -- 68.4 100.0
07/26/2018 14:00 1294.76 0.00 -- 71.8 89.0
07/26/2018 13:00 1294.75 0.07 -- 70.1 100.0
07/26/2018 12:00 1294.72 0.00 -- 71.4 91.0
07/26/2018 11:00 1294.74 0.00 -- 69.9 95.0
07/26/2018 10:00 1294.72 0.00 -- 68.6 100.0
07/26/2018 09:00 1294.76 0.00 -- 66.7 100.0
07/26/2018 08:00 1294.73 0.01 -- 65.6 100.0
07/26/2018 07:00 1294.72 0.00 -- 65.2 100.0
07/26/2018 06:00 1294.75 0.07 -- 65.6 100.0
07/26/2018 05:00 1294.73 0.01 -- 66.2 100.0
07/26/2018 04:00 1294.72 0.07 -- 66.9 100.0
07/26/2018 03:00 1294.71 0.11 -- 67.1 100.0
07/26/2018 02:00 1294.69 0.05 -- 67.6 100.0
07/26/2018 01:00 1294.73 0.01 -- 67.7 100.0
07/26/2018 00:00 1294.72 0.03 0.68 67.7 100.0
07/25/2018 23:00 1294.68 0.20 -- 68.0 100.0
07/25/2018 22:00 1294.71 0.06 -- 68.4 100.0
07/25/2018 21:00 1294.69 0.11 -- 68.9 100.0
07/25/2018 20:00 1294.71 0.00 -- 71.4 91.0
07/25/2018 19:00 1294.67 0.00 -- 72.0 86.0
07/25/2018 18:00 1294.65 0.00 -- 74.6 80.0
07/25/2018 17:00 1294.70 0.00 -- 75.6 74.0
07/25/2018 16:00 1294.66 0.00 -- 76.5 75.0
07/25/2018 15:00 1294.65 0.01 -- 73.6 88.0
07/25/2018 14:00 1294.66 0.00 -- 75.0 81.0
07/25/2018 13:00 1294.66 0.00 -- 75.3 79.0
07/25/2018 12:00 1294.69 0.00 -- 76.0 74.0
07/25/2018 11:00 1294.69 0.00 -- 72.6 85.0
07/25/2018 10:00 1294.67 0.00 -- 72.5 84.0
07/25/2018 09:00 1294.66 0.00 -- 70.5 91.0
07/25/2018 08:00 1294.70 0.00 -- 67.7 100.0
07/25/2018 07:00 1294.69 0.00 -- 67.3 100.0
07/25/2018 06:00 1294.67 0.00 -- 67.1 100.0
07/25/2018 05:00 1294.70 0.00 -- 67.1 100.0
07/25/2018 04:00 1294.68 0.00 -- 66.8 100.0
07/25/2018 03:00 1294.71 0.00 -- 66.8 100.0
07/25/2018 02:00 1294.70 0.00 -- 66.4 100.0
07/25/2018 01:00 1294.67 0.00 -- 66.3 100.0
07/25/2018 00:00 1294.71 0.00 0.41 66.6 100.0
07/24/2018 23:00 1294.68 0.00 -- 67.5 100.0
07/24/2018 22:00 1294.69 0.00 -- 68.3 100.0
07/24/2018 21:00 1294.70 0.00 -- 70.1 100.0
07/24/2018 20:00 1294.65 0.03 -- 72.7 94.0
07/24/2018 19:00 1294.70 0.00 -- 76.6 77.0
07/24/2018 18:00 1294.67 0.00 -- 75.1 85.0
07/24/2018 17:00 1294.67 0.04 -- 71.4 91.0
07/24/2018 16:00 1294.65 0.00 -- 77.3 82.0
07/24/2018 15:00 1294.66 0.05 -- 73.6 95.0
07/24/2018 14:00 1294.70 0.08 -- 75.3 91.0
07/24/2018 13:00 1294.65 0.00 -- 75.3 79.0
07/24/2018 12:00 1294.65 0.00 -- 72.6 99.0
07/24/2018 11:00 1294.69 0.06 -- 69.8 100.0
07/24/2018 10:00 1294.65 0.01 -- 69.5 100.0
07/24/2018 09:00 1294.68 0.01 -- 68.5 100.0
07/24/2018 08:00 1294.66 0.02 -- 67.9 100.0
07/24/2018 07:00 1294.63 0.00 -- 68.0 100.0
07/24/2018 06:00 1294.65 0.00 -- 67.7 100.0
07/24/2018 05:00 1294.68 0.00 -- 67.7 100.0
07/24/2018 04:00 1294.65 0.00 -- 68.2 100.0
07/24/2018 03:00 1294.67 0.00 -- 68.3 100.0
07/24/2018 02:00 1294.65 0.00 -- 67.8 100.0
07/24/2018 01:00 1294.67 0.00 -- 67.9 100.0
07/24/2018 00:00 1294.64 0.00 0.30 68.5 100.0
07/23/2018 23:00 1294.66 0.00 -- 68.8 100.0
07/23/2018 22:00 1294.66 0.00 -- 69.4 100.0
07/23/2018 21:00 1294.66 0.00 -- 71.0 100.0
07/23/2018 20:00 1294.61 0.00 -- 74.2 89.0
07/23/2018 19:00 1294.61 0.00 -- 73.9 95.0
07/23/2018 18:00 1294.63 0.01 -- 72.7 100.0
07/23/2018 17:00 1294.66 0.02 -- 76.0 90.0
07/23/2018 16:00 1294.60 0.07 -- 74.4 100.0
07/23/2018 15:00 1294.58 0.02 -- 74.2 100.0
07/23/2018 14:00 1294.61 0.00 -- 74.3 100.0
07/23/2018 13:00 1294.59 0.20 -- 72.6 100.0
07/23/2018 12:00 1294.61 0.02 -- 71.0 100.0
07/23/2018 11:00 1294.59 0.01 -- 69.8 100.0
07/23/2018 10:00 1294.60 0.10 -- 69.2 100.0
07/23/2018 09:00 1294.56 0.10 -- 69.0 100.0
07/23/2018 08:00 1294.56 0.17 -- 68.4 100.0
07/23/2018 07:00 1294.56 0.00 -- 68.1 100.0
07/23/2018 06:00 1294.57 0.03 -- 68.1 100.0
07/23/2018 05:00 1294.52 0.24 -- 68.3 100.0
07/23/2018 04:00 1294.50 0.62 -- 68.3 100.0
07/23/2018 03:00 1294.47 0.05 -- 67.8 100.0
07/23/2018 02:00 1294.44 0.01 -- 67.4 100.0
07/23/2018 01:00 1294.47 0.01 -- 67.3 100.0
07/23/2018 00:00 1294.49 0.13 1.68 66.9 100.0
07/22/2018 23:00 1294.44 0.00 -- 66.9 100.0
07/22/2018 22:00 1294.45 0.02 -- 67.3 100.0
07/22/2018 21:00 1294.48 0.00 -- 67.5 100.0
07/22/2018 20:00 1294.44 0.00 -- 67.4 100.0
07/22/2018 19:00 1294.44 0.00 -- 66.5 100.0
07/22/2018 18:00 1294.47 0.00 -- 65.8 100.0
07/22/2018 17:00 1294.49 0.00 -- 67.2 100.0
07/22/2018 16:00 1294.47 0.00 -- 66.5 100.0
07/22/2018 15:00 1294.44 0.00 -- 65.4 100.0
07/22/2018 14:00 1294.47 0.00 -- 63.7 100.0
07/22/2018 13:00 1294.49 0.00 -- 62.0 100.0
07/22/2018 12:00 1294.46 0.01 -- 60.4 100.0
07/22/2018 11:00 1294.48 0.07 -- 59.1 100.0
07/22/2018 10:00 1294.49 0.03 -- 57.9 100.0
07/22/2018 09:00 1294.45 0.00 -- 57.7 100.0
07/22/2018 08:00 1294.46 0.00 -- 57.8 99.0
07/22/2018 07:00 1294.47 0.00 -- 58.1 94.0
07/22/2018 06:00 1294.44 0.00 -- 58.4 93.0
07/22/2018 05:00 1294.44 0.00 -- 58.7 92.0
07/22/2018 04:00 1294.46 0.00 -- 58.2 93.0
07/22/2018 03:00 1294.48 0.00 -- 58.8 88.0
07/22/2018 02:00 1294.43 0.00 -- 58.9 90.0
07/22/2018 01:00 1294.46 0.00 -- 58.6 90.0
07/22/2018 00:00 1294.46 0.00 0.26 58.8 88.0
07/21/2018 23:00 1294.44 0.00 -- 60.7 85.0
07/21/2018 22:00 1294.46 0.00 -- 61.9 75.0
07/21/2018 21:00 1294.48 0.00 -- 65.1 65.0
07/21/2018 20:00 1294.42 0.00 -- 68.5 63.0
07/21/2018 19:00 1294.44 0.00 -- 71.2 57.0
07/21/2018 18:00 1294.48 0.00 -- 73.4 47.0
07/21/2018 17:00 1294.43 0.00 -- 76.5 44.0
07/21/2018 16:00 1294.48 0.00 -- 76.1 43.0
07/21/2018 15:00 1294.45 0.00 -- 74.4 47.0
07/21/2018 14:00 1294.44 0.00 -- 72.5 49.0
07/21/2018 13:00 1294.43 0.00 -- 70.3 61.0
07/21/2018 12:00 1294.49 0.00 -- 68.5 62.0
07/21/2018 11:00 1294.47 0.00 -- 68.1 66.0
07/21/2018 10:00 1294.45 0.00 -- 64.4 81.0
07/21/2018 09:00 1294.48 0.00 -- 58.0 99.0
07/21/2018 08:00 1294.48 0.00 -- 53.8 99.0
07/21/2018 07:00 1294.49 0.00 -- 52.1 100.0
07/21/2018 06:00 1294.44 0.00 -- 52.3 99.0
07/21/2018 05:00 1294.44 0.00 -- 52.7 99.0
07/21/2018 04:00 1294.45 0.00 -- 53.9 99.0
07/21/2018 03:00 1294.46 0.00 -- 55.0 99.0
07/21/2018 02:00 1294.43 0.00 -- 56.5 99.0
07/21/2018 01:00 1294.48 0.00 -- 58.4 97.0
07/21/2018 00:00 1294.46 0.00 0.00 61.0 90.0
07/20/2018 23:00 1294.48 0.00 -- 63.5 73.0
07/20/2018 22:00 -- -- -- 65.6 70.0
07/20/2018 21:00 -- -- -- 70.4 58.0
07/20/2018 20:00 -- -- -- 75.9 47.0
07/20/2018 19:00 -- -- -- 80.1 39.0
07/20/2018 18:00 -- -- -- 81.6 39.0
07/20/2018 17:00 -- -- -- 82.3 36.0
07/20/2018 16:00 -- -- -- 80.5 36.0
07/20/2018 15:00 -- -- -- 79.4 34.0
07/20/2018 14:00 -- -- -- 77.0 42.0
07/20/2018 13:00 -- -- -- 76.3 41.0
07/20/2018 12:00 -- -- -- 74.1 43.0
07/20/2018 11:00 -- -- -- 71.9 46.0
07/20/2018 10:00 -- -- -- 67.0 56.0
07/20/2018 09:00 -- -- -- 56.9 100.0
07/20/2018 08:00 -- -- -- 51.1 99.0
07/20/2018 07:00 -- -- -- 51.4 100.0
07/20/2018 06:00 -- -- -- 50.3 99.0
07/20/2018 05:00 -- -- -- 50.5 99.0
07/20/2018 04:00 -- -- -- 51.0 99.0
07/20/2018 03:00 -- -- -- 52.3 99.0
07/20/2018 02:00 -- -- -- 52.6 99.0
07/20/2018 01:00 -- -- -- 53.4 99.0
07/20/2018 00:00 -- -- 0.00 55.2 98.0